AFL1711 UHHH-UUEE
Flight info
| Callsign | AFL1711 |
|---|---|
| Flight time | 7h 35m |
| Altitude | 34000 |
| Route | IVADA2U IVADA L168 LEBNA T541 MOKIT/K0891F360 T541 KEDOR N174 MIGRI N155 GOBOM T187 ROMTA ROMTA3E |
| Aircraft | B77W/H-SDE1E2E3FGHIJ2J3J4J5M1RWXY/LB1D1 |
Departure
| Time | 2026-04-25 00:10 |
|---|---|
| Airport | Khabarovsk Novy Airport (UHHH) |
Arrival
| Time | 2026-04-25 07:45 |
|---|---|
| Airport | Sheremetyevo International Airport (UUEE) |
| Time | Latitude | Longitude | Altitude | Speed | Heading |
|---|---|---|---|---|---|
| 2026-04-25 00:02 | 48.52399 | 135.17387 | 275 ft | 0 kts | 131° |
| 2026-04-25 00:03 | 48.52390 | 135.17404 | 274 ft | 3 kts | 131° |
| 2026-04-25 00:03 | 48.52374 | 135.17445 | 273 ft | 4 kts | 89° |
| 2026-04-25 00:04 | 48.52387 | 135.17491 | 273 ft | 4 kts | 63° |
| 2026-04-25 00:04 | 48.52399 | 135.17543 | 273 ft | 5 kts | 83° |
| 2026-04-25 00:04 | 48.52393 | 135.17603 | 271 ft | 6 kts | 109° |
| 2026-04-25 00:04 | 48.52352 | 135.17680 | 267 ft | 11 kts | 134° |
| 2026-04-25 00:05 | 48.52290 | 135.17783 | 263 ft | 14 kts | 132° |
| 2026-04-25 00:05 | 48.52225 | 135.17894 | 261 ft | 14 kts | 131° |
| 2026-04-25 00:05 | 48.52156 | 135.18012 | 255 ft | 16 kts | 131° |
| 2026-04-25 00:05 | 48.52088 | 135.18089 | 253 ft | 10 kts | 183° |
| 2026-04-25 00:06 | 48.52028 | 135.18041 | 253 ft | 10 kts | 223° |
| 2026-04-25 00:06 | 48.51972 | 135.17964 | 253 ft | 12 kts | 221° |
| 2026-04-25 00:06 | 48.51904 | 135.17874 | 254 ft | 13 kts | 221° |
| 2026-04-25 00:06 | 48.51827 | 135.17769 | 253 ft | 16 kts | 222° |
| 2026-04-25 00:07 | 48.51736 | 135.17645 | 252 ft | 18 kts | 222° |
| 2026-04-25 00:07 | 48.51638 | 135.17511 | 248 ft | 18 kts | 221° |
| 2026-04-25 00:07 | 48.51542 | 135.17381 | 245 ft | 18 kts | 222° |
| 2026-04-25 00:07 | 48.51498 | 135.17300 | 244 ft | 7 kts | 257° |
| 2026-04-25 00:08 | 48.51511 | 135.17230 | 244 ft | 6 kts | 302° |
| 2026-04-25 00:08 | 48.51542 | 135.17175 | 245 ft | 7 kts | 311° |
| 2026-04-25 00:08 | 48.51582 | 135.17108 | 245 ft | 10 kts | 312° |
| 2026-04-25 00:08 | 48.51629 | 135.17032 | 246 ft | 4 kts | 314° |
| 2026-04-25 00:09 | 48.51672 | 135.17026 | 246 ft | 9 kts | 25° |
| 2026-04-25 00:09 | 48.51695 | 135.17055 | 246 ft | 6 kts | 45° |
| 2026-04-25 00:09 | 48.51818 | 135.17229 | 251 ft | 57 kts | 43° |
| 2026-04-25 00:09 | 48.52309 | 135.17902 | 262 ft | 132 kts | 42° |
| 2026-04-25 00:10 | 48.53159 | 135.19051 | 280 ft | 195 kts | 43° |
| 2026-04-25 00:10 | 48.54205 | 135.20451 | 1083 ft | 199 kts | 44° |
| 2026-04-25 00:10 | 48.55356 | 135.21657 | 1633 ft | 213 kts | 22° |
| 2026-04-25 00:10 | 48.56820 | 135.21994 | 2194 ft | 220 kts | 352° |
| 2026-04-25 00:11 | 48.58253 | 135.21227 | 2768 ft | 220 kts | 320° |
| 2026-04-25 00:11 | 48.59376 | 135.19727 | 3457 ft | 217 kts | 310° |
| 2026-04-25 00:11 | 48.60484 | 135.18097 | 3912 ft | 232 kts | 309° |
| 2026-04-25 00:11 | 48.61703 | 135.16292 | 4210 ft | 257 kts | 310° |
| 2026-04-25 00:12 | 48.63000 | 135.14375 | 4798 ft | 269 kts | 310° |
| 2026-04-25 00:12 | 48.64333 | 135.12415 | 5807 ft | 267 kts | 311° |
| 2026-04-25 00:12 | 48.65641 | 135.10489 | 6682 ft | 268 kts | 311° |
| 2026-04-25 00:12 | 48.66969 | 135.08531 | 7515 ft | 270 kts | 311° |
| 2026-04-25 00:13 | 48.68331 | 135.06520 | 8241 ft | 277 kts | 310° |
| 2026-04-25 00:13 | 48.69703 | 135.04492 | 9005 ft | 281 kts | 310° |
| 2026-04-25 00:13 | 48.71110 | 135.02414 | 9823 ft | 282 kts | 310° |
| 2026-04-25 00:13 | 48.72517 | 135.00330 | 10394 ft | 293 kts | 310° |
| 2026-04-25 00:14 | 48.74014 | 134.98105 | 10695 ft | 314 kts | 310° |
| 2026-04-25 00:14 | 48.75628 | 134.95703 | 11015 ft | 335 kts | 311° |
| 2026-04-25 00:14 | 48.77339 | 134.93156 | 11329 ft | 356 kts | 311° |
| 2026-04-25 00:14 | 48.79154 | 134.90457 | 11817 ft | 371 kts | 311° |
| 2026-04-25 00:15 | 48.80982 | 134.87743 | 12613 ft | 376 kts | 311° |
| 2026-04-25 00:15 | 48.82861 | 134.84950 | 13453 ft | 380 kts | 311° |
| 2026-04-25 00:15 | 48.84766 | 134.82115 | 14189 ft | 387 kts | 311° |
| 2026-04-25 00:15 | 48.86698 | 134.79237 | 14926 ft | 394 kts | 311° |
| 2026-04-25 00:16 | 48.88640 | 134.76344 | 15734 ft | 397 kts | 311° |
| 2026-04-25 00:16 | 48.90609 | 134.73406 | 16542 ft | 400 kts | 310° |
| 2026-04-25 00:16 | 48.92601 | 134.70430 | 17330 ft | 404 kts | 310° |
| 2026-04-25 00:16 | 48.94619 | 134.67412 | 18019 ft | 410 kts | 310° |
| 2026-04-25 00:17 | 48.96643 | 134.64378 | 18666 ft | 416 kts | 310° |
| 2026-04-25 00:17 | 48.98731 | 134.61247 | 19351 ft | 422 kts | 310° |
| 2026-04-25 00:17 | 49.00806 | 134.58134 | 20061 ft | 426 kts | 310° |
| 2026-04-25 00:17 | 49.02926 | 134.54950 | 20762 ft | 430 kts | 310° |
| 2026-04-25 00:18 | 49.05045 | 134.51765 | 21396 ft | 436 kts | 310° |
| 2026-04-25 00:18 | 49.07233 | 134.48479 | 22039 ft | 441 kts | 311° |
| 2026-04-25 00:18 | 49.09633 | 134.45483 | 22703 ft | 452 kts | 320° |
| 2026-04-25 00:18 | 49.12257 | 134.42790 | 23315 ft | 458 kts | 321° |
| 2026-04-25 00:19 | 49.14917 | 134.40114 | 23821 ft | 464 kts | 321° |
| 2026-04-25 00:19 | 49.17629 | 134.37384 | 24409 ft | 468 kts | 322° |
| 2026-04-25 00:19 | 49.20353 | 134.34633 | 24967 ft | 472 kts | 321° |
| 2026-04-25 00:19 | 49.23097 | 134.31857 | 25531 ft | 475 kts | 321° |
| 2026-04-25 00:20 | 49.25861 | 134.29056 | 26047 ft | 480 kts | 321° |
| 2026-04-25 00:20 | 49.28622 | 134.26251 | 26503 ft | 486 kts | 321° |
| 2026-04-25 00:20 | 49.31459 | 134.23366 | 26992 ft | 490 kts | 321° |
| 2026-04-25 00:20 | 49.34309 | 134.20460 | 27486 ft | 494 kts | 321° |
| 2026-04-25 00:21 | 49.37174 | 134.17539 | 27984 ft | 498 kts | 321° |
| 2026-04-25 00:21 | 49.40063 | 134.14584 | 28422 ft | 503 kts | 321° |
| 2026-04-25 00:21 | 49.42984 | 134.11595 | 28840 ft | 507 kts | 321° |
| 2026-04-25 00:21 | 49.45922 | 134.08583 | 29321 ft | 510 kts | 321° |
| 2026-04-25 00:22 | 49.48842 | 134.05588 | 29890 ft | 511 kts | 322° |
| 2026-04-25 00:22 | 49.51796 | 134.02562 | 30438 ft | 511 kts | 322° |
| 2026-04-25 00:22 | 49.54749 | 133.99535 | 30959 ft | 510 kts | 322° |
| 2026-04-25 00:22 | 49.57677 | 133.96526 | 31393 ft | 511 kts | 322° |
| 2026-04-25 00:23 | 49.60643 | 133.93474 | 31697 ft | 512 kts | 322° |
| 2026-04-25 00:23 | 49.63565 | 133.90463 | 32043 ft | 510 kts | 322° |
| 2026-04-25 00:23 | 49.66508 | 133.87427 | 32473 ft | 506 kts | 322° |
| 2026-04-25 00:23 | 49.69416 | 133.84422 | 32924 ft | 501 kts | 323° |
| 2026-04-25 00:24 | 49.72285 | 133.81453 | 33260 ft | 499 kts | 323° |
| 2026-04-25 00:24 | 49.75174 | 133.78458 | 33642 ft | 496 kts | 323° |
| 2026-04-25 00:24 | 49.78017 | 133.75503 | 33791 ft | 499 kts | 323° |
| 2026-04-25 00:24 | 49.80899 | 133.72507 | 33847 ft | 499 kts | 323° |
| 2026-04-25 00:25 | 49.86633 | 133.66531 | 33818 ft | 498 kts | 323° |
| 2026-04-25 00:25 | 49.92361 | 133.60544 | 33837 ft | 498 kts | 323° |
| 2026-04-25 00:26 | 49.98090 | 133.54536 | 33846 ft | 500 kts | 323° |
| 2026-04-25 00:26 | 50.03836 | 133.48497 | 33824 ft | 497 kts | 323° |
| 2026-04-25 00:27 | 50.09563 | 133.42458 | 33857 ft | 499 kts | 323° |
| 2026-04-25 00:27 | 50.15282 | 133.36334 | 33815 ft | 499 kts | 323° |
| 2026-04-25 00:28 | 50.21011 | 133.30173 | 33833 ft | 500 kts | 322° |
| 2026-04-25 00:28 | 50.26710 | 133.24030 | 33786 ft | 500 kts | 322° |
| 2026-04-25 00:29 | 50.32424 | 133.17851 | 33823 ft | 500 kts | 322° |
| 2026-04-25 00:29 | 50.38169 | 133.11624 | 33775 ft | 500 kts | 323° |
| 2026-04-25 00:30 | 50.43884 | 133.05409 | 33792 ft | 501 kts | 323° |
| 2026-04-25 00:30 | 50.49566 | 132.99213 | 33799 ft | 501 kts | 322° |
| 2026-04-25 00:31 | 50.55294 | 132.92947 | 33805 ft | 500 kts | 323° |
| 2026-04-25 00:31 | 50.60981 | 132.86708 | 33774 ft | 501 kts | 323° |
| 2026-04-25 00:32 | 50.66701 | 132.80414 | 33784 ft | 502 kts | 323° |
| 2026-04-25 00:32 | 50.72372 | 132.74153 | 33780 ft | 503 kts | 323° |
| 2026-04-25 00:33 | 50.78096 | 132.67818 | 33785 ft | 498 kts | 323° |
| 2026-04-25 00:33 | 50.83763 | 132.61523 | 33791 ft | 499 kts | 323° |
| 2026-04-25 00:34 | 50.89394 | 132.55252 | 33818 ft | 497 kts | 323° |
| 2026-04-25 00:34 | 50.95038 | 132.48949 | 33831 ft | 498 kts | 323° |
| 2026-04-25 00:35 | 51.00682 | 132.42622 | 33812 ft | 497 kts | 323° |
| 2026-04-25 00:35 | 51.06306 | 132.36302 | 33838 ft | 493 kts | 323° |
| 2026-04-25 00:36 | 51.11872 | 132.30028 | 33791 ft | 493 kts | 322° |
| 2026-04-25 00:36 | 51.17485 | 132.23679 | 33793 ft | 496 kts | 323° |
| 2026-04-25 00:37 | 51.23012 | 132.17165 | 33787 ft | 495 kts | 320° |
| 2026-04-25 00:37 | 51.28447 | 132.10439 | 33786 ft | 496 kts | 321° |
| 2026-04-25 00:38 | 51.33900 | 132.03690 | 33720 ft | 494 kts | 321° |
| 2026-04-25 00:38 | 51.39290 | 131.97009 | 33739 ft | 496 kts | 321° |
| 2026-04-25 00:39 | 51.44733 | 131.90248 | 33753 ft | 498 kts | 321° |
| 2026-04-25 00:39 | 51.50193 | 131.83450 | 33767 ft | 497 kts | 321° |
| 2026-04-25 00:40 | 51.55662 | 131.76623 | 33750 ft | 497 kts | 322° |
| 2026-04-25 00:40 | 51.61118 | 131.69791 | 33789 ft | 497 kts | 322° |
| 2026-04-25 00:41 | 51.66549 | 131.62968 | 33757 ft | 495 kts | 322° |
| 2026-04-25 00:41 | 51.71990 | 131.56113 | 33765 ft | 499 kts | 322° |
| 2026-04-25 00:42 | 51.77437 | 131.49229 | 33749 ft | 497 kts | 322° |
| 2026-04-25 00:42 | 51.82854 | 131.42362 | 33746 ft | 498 kts | 322° |
| 2026-04-25 00:43 | 51.88297 | 131.35437 | 33719 ft | 499 kts | 323° |
| 2026-04-25 00:43 | 51.93716 | 131.28520 | 33754 ft | 496 kts | 322° |
| 2026-04-25 00:44 | 51.99140 | 131.21578 | 33755 ft | 498 kts | 322° |
| 2026-04-25 00:44 | 52.04538 | 131.14645 | 33803 ft | 498 kts | 322° |
| 2026-04-25 00:45 | 52.09938 | 131.07686 | 33764 ft | 496 kts | 322° |
| 2026-04-25 00:45 | 52.15345 | 131.00694 | 33733 ft | 496 kts | 322° |
| 2026-04-25 00:46 | 52.20761 | 130.93669 | 33758 ft | 497 kts | 322° |
| 2026-04-25 00:47 | 52.28836 | 130.83153 | 33796 ft | 498 kts | 322° |
| 2026-04-25 00:47 | 52.34212 | 130.76123 | 33777 ft | 499 kts | 322° |
| 2026-04-25 00:48 | 52.39648 | 130.68991 | 33802 ft | 500 kts | 322° |
| 2026-04-25 00:48 | 52.45034 | 130.61903 | 33778 ft | 499 kts | 323° |
| 2026-04-25 00:49 | 52.50429 | 130.54781 | 33793 ft | 499 kts | 323° |
| 2026-04-25 00:49 | 52.55847 | 130.47603 | 33769 ft | 499 kts | 323° |
| 2026-04-25 00:50 | 52.61235 | 130.40442 | 33807 ft | 499 kts | 323° |
| 2026-04-25 00:50 | 52.66622 | 130.33260 | 33779 ft | 500 kts | 322° |
| 2026-04-25 00:51 | 52.71975 | 130.26099 | 33770 ft | 499 kts | 322° |
| 2026-04-25 00:51 | 52.77367 | 130.18861 | 33783 ft | 500 kts | 322° |
| 2026-04-25 00:52 | 52.82746 | 130.11618 | 33802 ft | 499 kts | 322° |
| 2026-04-25 00:52 | 52.88110 | 130.04372 | 33775 ft | 499 kts | 322° |
| 2026-04-25 00:53 | 52.93479 | 129.97095 | 33805 ft | 501 kts | 322° |
| 2026-04-25 00:53 | 52.98823 | 129.89822 | 33780 ft | 500 kts | 322° |
| 2026-04-25 00:54 | 53.04186 | 129.82498 | 33787 ft | 498 kts | 322° |
| 2026-04-25 00:54 | 53.09521 | 129.75188 | 33764 ft | 498 kts | 322° |
| 2026-04-25 00:55 | 53.14867 | 129.67837 | 33791 ft | 500 kts | 322° |
| 2026-04-25 00:55 | 53.20211 | 129.60466 | 33754 ft | 497 kts | 322° |
| 2026-04-25 00:56 | 53.25555 | 129.53070 | 33811 ft | 500 kts | 322° |
| 2026-04-25 00:56 | 53.30867 | 129.45692 | 33802 ft | 499 kts | 322° |
| 2026-04-25 00:57 | 53.36201 | 129.38260 | 33790 ft | 499 kts | 322° |
| 2026-04-25 00:57 | 53.41512 | 129.30837 | 33802 ft | 500 kts | 322° |
| 2026-04-25 00:58 | 53.46811 | 129.23402 | 33763 ft | 499 kts | 322° |
| 2026-04-25 00:58 | 53.52165 | 129.15866 | 33796 ft | 500 kts | 322° |
| 2026-04-25 00:59 | 53.57474 | 129.08368 | 33773 ft | 501 kts | 321° |
| 2026-04-25 00:59 | 53.62785 | 129.00839 | 33795 ft | 500 kts | 322° |
| 2026-04-25 01:00 | 53.68083 | 128.93304 | 33793 ft | 501 kts | 322° |
| 2026-04-25 01:00 | 53.73401 | 128.85715 | 33779 ft | 501 kts | 322° |
| 2026-04-25 01:01 | 53.78692 | 128.78139 | 33797 ft | 501 kts | 322° |
| 2026-04-25 01:01 | 53.84001 | 128.70509 | 33803 ft | 502 kts | 321° |
| 2026-04-25 01:02 | 53.89301 | 128.62868 | 33786 ft | 502 kts | 321° |
| 2026-04-25 01:02 | 53.94599 | 128.55202 | 33819 ft | 501 kts | 321° |
| 2026-04-25 01:03 | 53.99909 | 128.47492 | 33826 ft | 502 kts | 322° |
| 2026-04-25 01:03 | 54.05197 | 128.39787 | 33810 ft | 503 kts | 321° |
| 2026-04-25 01:04 | 54.10448 | 128.32114 | 33818 ft | 502 kts | 321° |
| 2026-04-25 01:04 | 54.15760 | 128.24336 | 33807 ft | 503 kts | 321° |
| 2026-04-25 01:05 | 54.21044 | 128.16574 | 33803 ft | 501 kts | 320° |
| 2026-04-25 01:05 | 54.26337 | 128.08771 | 33805 ft | 501 kts | 321° |
| 2026-04-25 01:06 | 54.31574 | 128.01022 | 33846 ft | 502 kts | 320° |
| 2026-04-25 01:06 | 54.36837 | 127.93208 | 33827 ft | 500 kts | 321° |
| 2026-04-25 01:07 | 54.42081 | 127.85394 | 33830 ft | 500 kts | 321° |
| 2026-04-25 01:07 | 54.47298 | 127.77594 | 33849 ft | 500 kts | 321° |
| 2026-04-25 01:08 | 54.52544 | 127.69722 | 33831 ft | 500 kts | 321° |
| 2026-04-25 01:08 | 54.57753 | 127.61877 | 33858 ft | 500 kts | 321° |
| 2026-04-25 01:09 | 54.62966 | 127.53999 | 33855 ft | 499 kts | 321° |
| 2026-04-25 01:09 | 54.68169 | 127.46110 | 33842 ft | 499 kts | 321° |
| 2026-04-25 01:10 | 54.73373 | 127.38189 | 33839 ft | 498 kts | 321° |
| 2026-04-25 01:10 | 54.78578 | 127.30239 | 33837 ft | 500 kts | 320° |
| 2026-04-25 01:11 | 54.83817 | 127.22337 | 33848 ft | 500 kts | 321° |
| 2026-04-25 01:11 | 54.89101 | 127.14654 | 33850 ft | 500 kts | 321° |
| 2026-04-25 01:12 | 54.94422 | 127.06879 | 33858 ft | 500 kts | 321° |
| 2026-04-25 01:12 | 54.99730 | 126.99085 | 33856 ft | 501 kts | 321° |
| 2026-04-25 01:13 | 55.05045 | 126.91245 | 33858 ft | 500 kts | 321° |
| 2026-04-25 01:13 | 55.10332 | 126.83417 | 33851 ft | 500 kts | 321° |
| 2026-04-25 01:14 | 55.15611 | 126.75570 | 33853 ft | 498 kts | 321° |
| 2026-04-25 01:14 | 55.20864 | 126.67733 | 33850 ft | 497 kts | 321° |
| 2026-04-25 01:15 | 55.26088 | 126.59910 | 33853 ft | 495 kts | 321° |
| 2026-04-25 01:15 | 55.31324 | 126.52041 | 33857 ft | 497 kts | 321° |
| 2026-04-25 01:16 | 55.36536 | 126.44167 | 33852 ft | 496 kts | 321° |
| 2026-04-25 01:16 | 55.41763 | 126.36237 | 33856 ft | 496 kts | 321° |
| 2026-04-25 01:17 | 55.46957 | 126.28327 | 33846 ft | 495 kts | 320° |
| 2026-04-25 01:17 | 55.52147 | 126.20396 | 33852 ft | 495 kts | 320° |
| 2026-04-25 01:18 | 55.57345 | 126.12425 | 33823 ft | 496 kts | 320° |
| 2026-04-25 01:18 | 55.62526 | 126.04451 | 33818 ft | 494 kts | 319° |
| 2026-04-25 01:19 | 55.67687 | 125.96478 | 33824 ft | 494 kts | 319° |
| 2026-04-25 01:19 | 55.72842 | 125.88485 | 33867 ft | 495 kts | 320° |
| 2026-04-25 01:20 | 55.77997 | 125.80463 | 33825 ft | 495 kts | 320° |
| 2026-04-25 01:20 | 55.83138 | 125.72433 | 33840 ft | 494 kts | 320° |
| 2026-04-25 01:21 | 55.88307 | 125.64331 | 33838 ft | 493 kts | 319° |
| 2026-04-25 01:21 | 55.93435 | 125.56264 | 33851 ft | 493 kts | 319° |
| 2026-04-25 01:22 | 55.98565 | 125.48163 | 33851 ft | 494 kts | 319° |
| 2026-04-25 01:22 | 56.03692 | 125.40037 | 33864 ft | 494 kts | 319° |
| 2026-04-25 01:23 | 56.08823 | 125.31877 | 33868 ft | 493 kts | 318° |
| 2026-04-25 01:23 | 56.13938 | 125.23721 | 33863 ft | 494 kts | 318° |
| 2026-04-25 01:24 | 56.19079 | 125.15494 | 33873 ft | 495 kts | 318° |
| 2026-04-25 01:24 | 56.24171 | 125.07313 | 33852 ft | 493 kts | 318° |
| 2026-04-25 01:25 | 56.29278 | 124.99080 | 33836 ft | 494 kts | 318° |
| 2026-04-25 01:25 | 56.34375 | 124.90830 | 33858 ft | 494 kts | 318° |
| 2026-04-25 01:26 | 56.39439 | 124.82604 | 33856 ft | 493 kts | 318° |
| 2026-04-25 01:26 | 56.44536 | 124.74301 | 33861 ft | 493 kts | 318° |
| 2026-04-25 01:27 | 56.49611 | 124.66002 | 33864 ft | 493 kts | 318° |
| 2026-04-25 01:27 | 56.54658 | 124.57717 | 33864 ft | 493 kts | 318° |
| 2026-04-25 01:28 | 56.62247 | 124.45203 | 33877 ft | 492 kts | 318° |
| 2026-04-25 01:28 | 56.67279 | 124.36865 | 33882 ft | 493 kts | 318° |
| 2026-04-25 01:29 | 56.72331 | 124.28462 | 33872 ft | 493 kts | 317° |
| 2026-04-25 01:29 | 56.77383 | 124.20026 | 33889 ft | 494 kts | 317° |
| 2026-04-25 01:30 | 56.82403 | 124.11613 | 33880 ft | 493 kts | 317° |
| 2026-04-25 01:30 | 56.87441 | 124.03136 | 33877 ft | 492 kts | 317° |
| 2026-04-25 01:31 | 56.92471 | 123.94641 | 33896 ft | 494 kts | 317° |
| 2026-04-25 01:31 | 56.97473 | 123.86161 | 33911 ft | 492 kts | 317° |
| 2026-04-25 01:32 | 57.02476 | 123.77647 | 33912 ft | 492 kts | 317° |
| 2026-04-25 01:32 | 57.07480 | 123.69096 | 33912 ft | 491 kts | 317° |
| 2026-04-25 01:33 | 57.12471 | 123.60513 | 33909 ft | 491 kts | 317° |
| 2026-04-25 01:33 | 57.17442 | 123.51931 | 33917 ft | 490 kts | 317° |
| 2026-04-25 01:34 | 57.22396 | 123.43349 | 33929 ft | 490 kts | 317° |
| 2026-04-25 01:34 | 57.27340 | 123.34753 | 33919 ft | 491 kts | 316° |
| 2026-04-25 01:35 | 57.32296 | 123.26102 | 33905 ft | 489 kts | 316° |
| 2026-04-25 01:35 | 57.37249 | 123.17421 | 33905 ft | 491 kts | 316° |
| 2026-04-25 01:36 | 57.42167 | 123.08770 | 33917 ft | 489 kts | 316° |
| 2026-04-25 01:36 | 57.47097 | 123.00063 | 33925 ft | 489 kts | 316° |
| 2026-04-25 01:37 | 57.51979 | 122.91408 | 33925 ft | 489 kts | 316° |
| 2026-04-25 01:37 | 57.56878 | 122.82687 | 33916 ft | 488 kts | 316° |
| 2026-04-25 01:38 | 57.61778 | 122.73931 | 33904 ft | 487 kts | 316° |
| 2026-04-25 01:38 | 57.66645 | 122.65201 | 33923 ft | 487 kts | 316° |
| 2026-04-25 01:39 | 57.71507 | 122.56443 | 33920 ft | 487 kts | 316° |
| 2026-04-25 01:39 | 57.76394 | 122.47607 | 33923 ft | 488 kts | 316° |
| 2026-04-25 01:40 | 57.81240 | 122.38809 | 33918 ft | 487 kts | 316° |
| 2026-04-25 01:40 | 57.86067 | 122.30013 | 33926 ft | 487 kts | 315° |
| 2026-04-25 01:41 | 57.90908 | 122.21156 | 33926 ft | 486 kts | 315° |
| 2026-04-25 01:41 | 57.95727 | 122.12303 | 33930 ft | 488 kts | 315° |
| 2026-04-25 01:42 | 58.00564 | 122.03382 | 33952 ft | 487 kts | 315° |
| 2026-04-25 01:42 | 58.05370 | 121.94483 | 33959 ft | 487 kts | 315° |
| 2026-04-25 01:43 | 58.10203 | 121.85500 | 33970 ft | 487 kts | 315° |
| 2026-04-25 01:43 | 58.15016 | 121.76515 | 33963 ft | 485 kts | 315° |
| 2026-04-25 01:44 | 58.19802 | 121.67546 | 33969 ft | 485 kts | 315° |
| 2026-04-25 01:44 | 58.24583 | 121.58549 | 33969 ft | 486 kts | 315° |
| 2026-04-25 01:45 | 58.29353 | 121.49540 | 33974 ft | 486 kts | 315° |
| 2026-04-25 01:45 | 58.34128 | 121.40482 | 33977 ft | 485 kts | 315° |
| 2026-04-25 01:46 | 58.38916 | 121.31365 | 33996 ft | 485 kts | 314° |
| 2026-04-25 01:46 | 58.43642 | 121.22327 | 33991 ft | 484 kts | 314° |
| 2026-04-25 01:47 | 58.48396 | 121.13198 | 33999 ft | 484 kts | 314° |
| 2026-04-25 01:47 | 58.53114 | 121.04104 | 34007 ft | 484 kts | 314° |
| 2026-04-25 01:48 | 58.57847 | 120.94942 | 34016 ft | 484 kts | 314° |
| 2026-04-25 01:48 | 58.62558 | 120.85785 | 34011 ft | 484 kts | 314° |
| 2026-04-25 01:49 | 58.66973 | 120.76067 | 34017 ft | 484 kts | 307° |
| 2026-04-25 01:49 | 58.71018 | 120.65760 | 34021 ft | 484 kts | 306° |
| 2026-04-25 01:50 | 58.75056 | 120.55413 | 34025 ft | 483 kts | 306° |
| 2026-04-25 01:50 | 58.79071 | 120.45082 | 34034 ft | 483 kts | 307° |
| 2026-04-25 01:51 | 58.83078 | 120.34733 | 34043 ft | 484 kts | 306° |
| 2026-04-25 01:51 | 58.87101 | 120.24298 | 34042 ft | 483 kts | 306° |
| 2026-04-25 01:52 | 58.91099 | 120.13881 | 34040 ft | 483 kts | 306° |
| 2026-04-25 01:52 | 58.95071 | 120.03489 | 34030 ft | 483 kts | 306° |
| 2026-04-25 01:53 | 58.99063 | 119.92995 | 34042 ft | 484 kts | 306° |
| 2026-04-25 01:53 | 59.03030 | 119.82523 | 34044 ft | 483 kts | 306° |
| 2026-04-25 01:54 | 59.06984 | 119.72039 | 34051 ft | 483 kts | 306° |
| 2026-04-25 01:54 | 59.10956 | 119.61460 | 34014 ft | 483 kts | 306° |
| 2026-04-25 01:55 | 59.14884 | 119.50923 | 34019 ft | 482 kts | 306° |
| 2026-04-25 01:55 | 59.18800 | 119.40363 | 34028 ft | 482 kts | 306° |
| 2026-04-25 01:56 | 59.22710 | 119.29773 | 34035 ft | 483 kts | 304° |
| 2026-04-25 01:56 | 59.26633 | 119.19099 | 34046 ft | 483 kts | 305° |
| 2026-04-25 01:57 | 59.32465 | 119.03142 | 34044 ft | 482 kts | 304° |
| 2026-04-25 01:58 | 59.36351 | 118.92448 | 34029 ft | 480 kts | 305° |
| 2026-04-25 01:58 | 59.40201 | 118.81806 | 34050 ft | 481 kts | 304° |
| 2026-04-25 01:59 | 59.44056 | 118.71102 | 34059 ft | 480 kts | 305° |
| 2026-04-25 01:59 | 59.47885 | 118.60421 | 34069 ft | 480 kts | 305° |
| 2026-04-25 02:00 | 59.51689 | 118.49761 | 34076 ft | 480 kts | 305° |
| 2026-04-25 02:00 | 59.55522 | 118.38975 | 34065 ft | 479 kts | 305° |
| 2026-04-25 02:01 | 59.59311 | 118.28258 | 34067 ft | 478 kts | 304° |
| 2026-04-25 02:01 | 59.63088 | 118.17532 | 34067 ft | 478 kts | 304° |
| 2026-04-25 02:02 | 59.66856 | 118.06778 | 34066 ft | 478 kts | 304° |
| 2026-04-25 02:02 | 59.70635 | 117.95943 | 34080 ft | 476 kts | 304° |
| 2026-04-25 02:03 | 59.74382 | 117.85153 | 34086 ft | 477 kts | 304° |
| 2026-04-25 02:03 | 59.78125 | 117.74322 | 34084 ft | 477 kts | 304° |
| 2026-04-25 02:04 | 59.81855 | 117.63479 | 34090 ft | 477 kts | 304° |
| 2026-04-25 02:04 | 59.85566 | 117.52641 | 34070 ft | 475 kts | 304° |
| 2026-04-25 02:05 | 59.89261 | 117.41804 | 34077 ft | 475 kts | 304° |
| 2026-04-25 02:05 | 59.92909 | 117.30920 | 34081 ft | 473 kts | 303° |
| 2026-04-25 02:06 | 59.96545 | 117.19985 | 34082 ft | 472 kts | 303° |
| 2026-04-25 02:06 | 60.00152 | 117.09096 | 34098 ft | 471 kts | 303° |
| 2026-04-25 02:07 | 60.03736 | 116.98230 | 34105 ft | 472 kts | 303° |
| 2026-04-25 02:07 | 60.07324 | 116.87299 | 34097 ft | 472 kts | 303° |
| 2026-04-25 02:08 | 60.10923 | 116.76286 | 34083 ft | 472 kts | 303° |
| 2026-04-25 02:08 | 60.14516 | 116.65239 | 34086 ft | 473 kts | 303° |
| 2026-04-25 02:09 | 60.18072 | 116.54252 | 34093 ft | 473 kts | 303° |
| 2026-04-25 02:09 | 60.21656 | 116.43126 | 34111 ft | 472 kts | 303° |
| 2026-04-25 02:10 | 60.25206 | 116.32056 | 34106 ft | 472 kts | 302° |
| 2026-04-25 02:10 | 60.28734 | 116.21001 | 34093 ft | 472 kts | 303° |
| 2026-04-25 02:11 | 60.32275 | 116.09852 | 34095 ft | 473 kts | 303° |
| 2026-04-25 02:11 | 60.35784 | 115.98749 | 34109 ft | 472 kts | 303° |
| 2026-04-25 02:12 | 60.39297 | 115.87569 | 34103 ft | 471 kts | 303° |
| 2026-04-25 02:12 | 60.42765 | 115.76476 | 34121 ft | 471 kts | 302° |
| 2026-04-25 02:13 | 60.46255 | 115.65263 | 34065 ft | 469 kts | 303° |
| 2026-04-25 02:13 | 60.49726 | 115.54050 | 34086 ft | 469 kts | 303° |
| 2026-04-25 02:14 | 60.53167 | 115.42885 | 34090 ft | 468 kts | 303° |
| 2026-04-25 02:14 | 60.56598 | 115.31696 | 34101 ft | 467 kts | 302° |
| 2026-04-25 02:15 | 60.60006 | 115.20531 | 34100 ft | 467 kts | 302° |
| 2026-04-25 02:15 | 60.63417 | 115.09297 | 34126 ft | 465 kts | 302° |
| 2026-04-25 02:16 | 60.66781 | 114.98167 | 34128 ft | 465 kts | 302° |
| 2026-04-25 02:16 | 60.70155 | 114.86949 | 34139 ft | 465 kts | 302° |
| 2026-04-25 02:17 | 60.73593 | 114.75840 | 34144 ft | 465 kts | 305° |
| 2026-04-25 02:17 | 60.77232 | 114.64954 | 34131 ft | 464 kts | 305° |
| 2026-04-25 02:18 | 60.80858 | 114.54019 | 34121 ft | 464 kts | 305° |
| 2026-04-25 02:18 | 60.84452 | 114.43096 | 34127 ft | 462 kts | 305° |
| 2026-04-25 02:19 | 60.88012 | 114.32210 | 34131 ft | 461 kts | 304° |
| 2026-04-25 02:19 | 60.91562 | 114.21288 | 34136 ft | 460 kts | 304° |
| 2026-04-25 02:20 | 60.95082 | 114.10409 | 34133 ft | 459 kts | 304° |
| 2026-04-25 02:20 | 60.98597 | 113.99489 | 34139 ft | 459 kts | 304° |
| 2026-04-25 02:21 | 61.02116 | 113.88502 | 34136 ft | 458 kts | 304° |
| 2026-04-25 02:21 | 61.05591 | 113.77600 | 34135 ft | 457 kts | 304° |
| 2026-04-25 02:22 | 61.09066 | 113.66650 | 34134 ft | 457 kts | 304° |
| 2026-04-25 02:22 | 61.12544 | 113.55635 | 34141 ft | 457 kts | 304° |
| 2026-04-25 02:23 | 61.15988 | 113.44676 | 34136 ft | 456 kts | 304° |
| 2026-04-25 02:23 | 61.19425 | 113.33687 | 34132 ft | 454 kts | 303° |
| 2026-04-25 02:24 | 61.22840 | 113.22716 | 34136 ft | 453 kts | 303° |
| 2026-04-25 02:24 | 61.26252 | 113.11703 | 34134 ft | 453 kts | 303° |
| 2026-04-25 02:25 | 61.29619 | 113.00783 | 34138 ft | 452 kts | 303° |
| 2026-04-25 02:25 | 61.33015 | 112.89714 | 34144 ft | 452 kts | 304° |
| 2026-04-25 02:26 | 61.36367 | 112.78738 | 34135 ft | 450 kts | 304° |
| 2026-04-25 02:26 | 61.39703 | 112.67761 | 34142 ft | 449 kts | 304° |
| 2026-04-25 02:27 | 61.43033 | 112.56756 | 34143 ft | 448 kts | 304° |
| 2026-04-25 02:27 | 61.46339 | 112.45770 | 34143 ft | 448 kts | 304° |
| 2026-04-25 02:28 | 61.49622 | 112.34814 | 34153 ft | 447 kts | 303° |
| 2026-04-25 02:28 | 61.52915 | 112.23769 | 34159 ft | 447 kts | 303° |
| 2026-04-25 02:29 | 61.56194 | 112.12717 | 34158 ft | 446 kts | 303° |
| 2026-04-25 02:29 | 61.59444 | 112.01709 | 34158 ft | 445 kts | 303° |
| 2026-04-25 02:30 | 61.62688 | 111.90669 | 34152 ft | 444 kts | 303° |
| 2026-04-25 02:30 | 61.65910 | 111.79654 | 34154 ft | 444 kts | 303° |
| 2026-04-25 02:31 | 61.69103 | 111.68682 | 34143 ft | 442 kts | 303° |
| 2026-04-25 02:31 | 61.72292 | 111.57672 | 34148 ft | 442 kts | 303° |
| 2026-04-25 02:32 | 61.75466 | 111.46660 | 34147 ft | 441 kts | 303° |
| 2026-04-25 02:32 | 61.78645 | 111.35578 | 34148 ft | 442 kts | 303° |
| 2026-04-25 02:33 | 61.81823 | 111.24447 | 34152 ft | 442 kts | 303° |
| 2026-04-25 02:33 | 61.84977 | 111.13341 | 34154 ft | 441 kts | 303° |
| 2026-04-25 02:34 | 61.88106 | 111.02273 | 34163 ft | 441 kts | 303° |
| 2026-04-25 02:34 | 61.91235 | 110.91150 | 34163 ft | 440 kts | 303° |
| 2026-04-25 02:35 | 61.94348 | 110.80028 | 34160 ft | 439 kts | 303° |
| 2026-04-25 02:35 | 61.97454 | 110.68874 | 34162 ft | 438 kts | 303° |
| 2026-04-25 02:36 | 62.00519 | 110.57819 | 34160 ft | 437 kts | 302° |
| 2026-04-25 02:36 | 62.03597 | 110.46658 | 34153 ft | 437 kts | 302° |
| 2026-04-25 02:37 | 62.06661 | 110.35493 | 34162 ft | 436 kts | 302° |
| 2026-04-25 02:37 | 62.09695 | 110.24384 | 34167 ft | 435 kts | 301° |
| 2026-04-25 02:38 | 62.12734 | 110.13202 | 34175 ft | 435 kts | 301° |
| 2026-04-25 02:38 | 62.15740 | 110.02083 | 34170 ft | 433 kts | 301° |
| 2026-04-25 02:39 | 62.18737 | 109.90946 | 34186 ft | 434 kts | 301° |
| 2026-04-25 02:39 | 62.21722 | 109.79794 | 34178 ft | 433 kts | 301° |
| 2026-04-25 02:40 | 62.24715 | 109.68560 | 34178 ft | 433 kts | 301° |
| 2026-04-25 02:40 | 62.27668 | 109.57422 | 34177 ft | 432 kts | 301° |
| 2026-04-25 02:41 | 62.30621 | 109.46222 | 34181 ft | 431 kts | 301° |
| 2026-04-25 02:41 | 62.33566 | 109.35002 | 34177 ft | 432 kts | 301° |
| 2026-04-25 02:42 | 62.36499 | 109.23768 | 34183 ft | 432 kts | 300° |
| 2026-04-25 02:42 | 62.39418 | 109.12530 | 34187 ft | 432 kts | 300° |
| 2026-04-25 02:43 | 62.42352 | 109.01180 | 34181 ft | 431 kts | 300° |
| 2026-04-25 02:43 | 62.45245 | 108.89931 | 34162 ft | 431 kts | 300° |
| 2026-04-25 02:44 | 62.48151 | 108.78572 | 34152 ft | 431 kts | 299° |
| 2026-04-25 02:44 | 62.51024 | 108.67287 | 34152 ft | 432 kts | 299° |
| 2026-04-25 02:45 | 62.53906 | 108.55907 | 34152 ft | 432 kts | 299° |
| 2026-04-25 02:45 | 62.56781 | 108.44495 | 34157 ft | 432 kts | 299° |
| 2026-04-25 02:46 | 62.59655 | 108.33028 | 34160 ft | 433 kts | 298° |
| 2026-04-25 02:46 | 62.62518 | 108.21545 | 34156 ft | 433 kts | 298° |
| 2026-04-25 02:47 | 62.65367 | 108.10061 | 34147 ft | 434 kts | 298° |
| 2026-04-25 02:47 | 62.68219 | 107.98505 | 34142 ft | 434 kts | 298° |
| 2026-04-25 02:48 | 62.71057 | 107.86942 | 34140 ft | 434 kts | 298° |
| 2026-04-25 02:48 | 62.73898 | 107.75307 | 34140 ft | 434 kts | 298° |
| 2026-04-25 02:49 | 62.76717 | 107.63699 | 34137 ft | 434 kts | 297° |
| 2026-04-25 02:49 | 62.79512 | 107.52130 | 34126 ft | 434 kts | 297° |
| 2026-04-25 02:50 | 62.82306 | 107.40502 | 34124 ft | 433 kts | 297° |
| 2026-04-25 02:50 | 62.85109 | 107.28775 | 34129 ft | 433 kts | 296° |
| 2026-04-25 02:51 | 62.87873 | 107.17147 | 34139 ft | 434 kts | 296° |
| 2026-04-25 02:51 | 62.90648 | 107.05413 | 34139 ft | 434 kts | 296° |
| 2026-04-25 02:52 | 62.93451 | 106.93640 | 34147 ft | 443 kts | 297° |
| 2026-04-25 02:52 | 62.94909 | 106.87644 | 34286 ft | 448 kts | 297° |
| 2026-04-25 02:52 | 62.96359 | 106.81663 | 34601 ft | 447 kts | 297° |
| 2026-04-25 02:52 | 62.97821 | 106.75612 | 34933 ft | 446 kts | 297° |
| 2026-04-25 02:53 | 62.99256 | 106.69652 | 35208 ft | 445 kts | 297° |
| 2026-04-25 02:53 | 63.00695 | 106.63660 | 35430 ft | 446 kts | 297° |
| 2026-04-25 02:53 | 63.02135 | 106.57642 | 35655 ft | 447 kts | 297° |
| 2026-04-25 02:53 | 63.03587 | 106.51559 | 35866 ft | 447 kts | 297° |
| 2026-04-25 02:54 | 63.05017 | 106.45548 | 36054 ft | 448 kts | 297° |
| 2026-04-25 02:54 | 63.07902 | 106.33369 | 36125 ft | 449 kts | 297° |
| 2026-04-25 02:55 | 63.10788 | 106.21116 | 36137 ft | 448 kts | 297° |
| 2026-04-25 02:55 | 63.13656 | 106.08871 | 36139 ft | 449 kts | 296° |
| 2026-04-25 02:56 | 63.16499 | 105.96661 | 36141 ft | 449 kts | 296° |
| 2026-04-25 02:56 | 63.19342 | 105.84382 | 36138 ft | 449 kts | 297° |
| 2026-04-25 02:57 | 63.22154 | 105.72168 | 36131 ft | 449 kts | 297° |
| 2026-04-25 02:57 | 63.24974 | 105.59849 | 36133 ft | 447 kts | 297° |
| 2026-04-25 02:58 | 63.27778 | 105.47531 | 36128 ft | 448 kts | 297° |
| 2026-04-25 02:58 | 63.30568 | 105.35205 | 36122 ft | 449 kts | 296° |
| 2026-04-25 02:59 | 63.33372 | 105.22741 | 36118 ft | 449 kts | 296° |
| 2026-04-25 02:59 | 63.36133 | 105.10400 | 36124 ft | 450 kts | 296° |
| 2026-04-25 03:00 | 63.38906 | 104.97929 | 36133 ft | 449 kts | 296° |
| 2026-04-25 03:00 | 63.41661 | 104.85470 | 36123 ft | 449 kts | 296° |
| 2026-04-25 03:01 | 63.44402 | 104.73003 | 36120 ft | 449 kts | 296° |
| 2026-04-25 03:01 | 63.47131 | 104.60514 | 36117 ft | 448 kts | 296° |
| 2026-04-25 03:02 | 63.49845 | 104.48021 | 36117 ft | 448 kts | 296° |
| 2026-04-25 03:02 | 63.52536 | 104.35558 | 36113 ft | 449 kts | 296° |
| 2026-04-25 03:03 | 63.55255 | 104.22890 | 36119 ft | 448 kts | 295° |
| 2026-04-25 03:03 | 63.57922 | 104.10394 | 36115 ft | 449 kts | 295° |
| 2026-04-25 03:04 | 63.60596 | 103.97787 | 36103 ft | 449 kts | 295° |
| 2026-04-25 03:04 | 63.63265 | 103.85138 | 36099 ft | 449 kts | 295° |
| 2026-04-25 03:05 | 63.67245 | 103.66130 | 36115 ft | 449 kts | 295° |
| 2026-04-25 03:05 | 63.69874 | 103.53478 | 36102 ft | 449 kts | 295° |
| 2026-04-25 03:06 | 63.72502 | 103.40756 | 36088 ft | 449 kts | 295° |
| 2026-04-25 03:06 | 63.75144 | 103.27882 | 36081 ft | 448 kts | 294° |
| 2026-04-25 03:07 | 63.77735 | 103.15180 | 36057 ft | 450 kts | 294° |
| 2026-04-25 03:07 | 63.80344 | 103.02310 | 36054 ft | 450 kts | 294° |
| 2026-04-25 03:08 | 63.82923 | 102.89508 | 36062 ft | 450 kts | 294° |
| 2026-04-25 03:08 | 63.85507 | 102.76605 | 36057 ft | 450 kts | 294° |
| 2026-04-25 03:09 | 63.88067 | 102.63741 | 36054 ft | 450 kts | 294° |
| 2026-04-25 03:09 | 63.90617 | 102.50841 | 36060 ft | 449 kts | 294° |
| 2026-04-25 03:10 | 63.93170 | 102.37846 | 36050 ft | 450 kts | 294° |
| 2026-04-25 03:10 | 63.95701 | 102.24884 | 36043 ft | 451 kts | 293° |
| 2026-04-25 03:11 | 63.98230 | 102.11845 | 36048 ft | 450 kts | 293° |
| 2026-04-25 03:11 | 64.00739 | 101.98821 | 36065 ft | 450 kts | 293° |
| 2026-04-25 03:12 | 64.03231 | 101.85811 | 36053 ft | 450 kts | 293° |
| 2026-04-25 03:12 | 64.05702 | 101.72823 | 36029 ft | 449 kts | 293° |
| 2026-04-25 03:13 | 64.08191 | 101.59654 | 36014 ft | 450 kts | 293° |
| 2026-04-25 03:13 | 64.10645 | 101.46583 | 36003 ft | 450 kts | 293° |
| 2026-04-25 03:14 | 64.13103 | 101.33406 | 36011 ft | 451 kts | 292° |
| 2026-04-25 03:14 | 64.15545 | 101.20231 | 36016 ft | 452 kts | 292° |
| 2026-04-25 03:15 | 64.17977 | 101.07020 | 36000 ft | 450 kts | 292° |
| 2026-04-25 03:15 | 64.20386 | 100.93845 | 35992 ft | 450 kts | 292° |
| 2026-04-25 03:16 | 64.22795 | 100.80585 | 36006 ft | 450 kts | 292° |
| 2026-04-25 03:16 | 64.25186 | 100.67335 | 36020 ft | 450 kts | 292° |
| 2026-04-25 03:17 | 64.27560 | 100.54087 | 36018 ft | 450 kts | 292° |
| 2026-04-25 03:17 | 64.29647 | 100.40524 | 36023 ft | 450 kts | 284° |
| 2026-04-25 03:18 | 64.31100 | 100.26500 | 36023 ft | 451 kts | 283° |
| 2026-04-25 03:18 | 64.32516 | 100.12404 | 36021 ft | 451 kts | 283° |
| 2026-04-25 03:19 | 64.33903 | 99.98365 | 35994 ft | 451 kts | 283° |
| 2026-04-25 03:19 | 64.35272 | 99.84323 | 35988 ft | 450 kts | 283° |
| 2026-04-25 03:20 | 64.36623 | 99.70267 | 35990 ft | 450 kts | 283° |
| 2026-04-25 03:20 | 64.37965 | 99.56149 | 35982 ft | 450 kts | 283° |
| 2026-04-25 03:21 | 64.39284 | 99.42107 | 35970 ft | 450 kts | 283° |
| 2026-04-25 03:21 | 64.40597 | 99.27970 | 35972 ft | 450 kts | 282° |
| 2026-04-25 03:22 | 64.41889 | 99.13899 | 35964 ft | 451 kts | 282° |
| 2026-04-25 03:22 | 64.43175 | 98.99733 | 35952 ft | 450 kts | 282° |
| 2026-04-25 03:23 | 64.44444 | 98.85588 | 35948 ft | 450 kts | 282° |
| 2026-04-25 03:23 | 64.45699 | 98.71439 | 35942 ft | 450 kts | 282° |
| 2026-04-25 03:24 | 64.46944 | 98.57219 | 35948 ft | 450 kts | 282° |
| 2026-04-25 03:24 | 64.48171 | 98.43063 | 35940 ft | 449 kts | 282° |
| 2026-04-25 03:25 | 64.49383 | 98.28890 | 35939 ft | 449 kts | 281° |
| 2026-04-25 03:25 | 64.50577 | 98.14761 | 35938 ft | 448 kts | 281° |
| 2026-04-25 03:26 | 64.51759 | 98.00597 | 35952 ft | 448 kts | 281° |
| 2026-04-25 03:26 | 64.52924 | 97.86462 | 35946 ft | 449 kts | 281° |
| 2026-04-25 03:27 | 64.54081 | 97.72257 | 35922 ft | 449 kts | 281° |
| 2026-04-25 03:27 | 64.55225 | 97.58032 | 35931 ft | 449 kts | 281° |
| 2026-04-25 03:28 | 64.56356 | 97.43772 | 35944 ft | 448 kts | 281° |
| 2026-04-25 03:28 | 64.57472 | 97.29526 | 35965 ft | 448 kts | 281° |
| 2026-04-25 03:29 | 64.58566 | 97.15383 | 35978 ft | 448 kts | 280° |
| 2026-04-25 03:29 | 64.59651 | 97.01144 | 35998 ft | 447 kts | 280° |
| 2026-04-25 03:30 | 64.60725 | 96.86874 | 35995 ft | 448 kts | 280° |
| 2026-04-25 03:30 | 64.61784 | 96.72615 | 35979 ft | 448 kts | 280° |
| 2026-04-25 03:31 | 64.62830 | 96.58325 | 35969 ft | 448 kts | 281° |
| 2026-04-25 03:31 | 64.63859 | 96.44075 | 35968 ft | 449 kts | 281° |
| 2026-04-25 03:32 | 64.64881 | 96.29714 | 35977 ft | 449 kts | 279° |
| 2026-04-25 03:32 | 64.65885 | 96.15401 | 35969 ft | 449 kts | 279° |
| 2026-04-25 03:33 | 64.66873 | 96.01104 | 35975 ft | 448 kts | 279° |
| 2026-04-25 03:33 | 64.67852 | 95.86740 | 35976 ft | 448 kts | 279° |
| 2026-04-25 03:34 | 64.68813 | 95.72425 | 35970 ft | 447 kts | 279° |
| 2026-04-25 03:34 | 64.69756 | 95.58141 | 35974 ft | 447 kts | 279° |
| 2026-04-25 03:35 | 64.70692 | 95.43771 | 35974 ft | 447 kts | 279° |
| 2026-04-25 03:35 | 64.71609 | 95.29449 | 35970 ft | 448 kts | 279° |
| 2026-04-25 03:36 | 64.72511 | 95.15134 | 35969 ft | 447 kts | 279° |
| 2026-04-25 03:36 | 64.73402 | 95.00787 | 35952 ft | 447 kts | 279° |
| 2026-04-25 03:37 | 64.74277 | 94.86443 | 35958 ft | 447 kts | 279° |
| 2026-04-25 03:37 | 64.75143 | 94.72037 | 35971 ft | 448 kts | 279° |
| 2026-04-25 03:38 | 64.75992 | 94.57651 | 35975 ft | 445 kts | 279° |
| 2026-04-25 03:38 | 64.76823 | 94.43310 | 35968 ft | 445 kts | 279° |
| 2026-04-25 03:39 | 64.77639 | 94.29009 | 35980 ft | 445 kts | 278° |
| 2026-04-25 03:39 | 64.78443 | 94.14663 | 35985 ft | 445 kts | 278° |
| 2026-04-25 03:40 | 64.79293 | 94.00352 | 35989 ft | 445 kts | 279° |
| 2026-04-25 03:40 | 64.80172 | 93.86011 | 35991 ft | 445 kts | 279° |
| 2026-04-25 03:41 | 64.81034 | 93.71652 | 35985 ft | 445 kts | 279° |
| 2026-04-25 03:41 | 64.81876 | 93.57355 | 35986 ft | 445 kts | 279° |
| 2026-04-25 03:42 | 64.82708 | 93.42949 | 35992 ft | 446 kts | 279° |
| 2026-04-25 03:42 | 64.83528 | 93.28495 | 35979 ft | 446 kts | 278° |
| 2026-04-25 03:43 | 64.84328 | 93.14150 | 35970 ft | 445 kts | 278° |
| 2026-04-25 03:43 | 64.85113 | 92.99807 | 35973 ft | 445 kts | 278° |
| 2026-04-25 03:44 | 64.85886 | 92.85410 | 35978 ft | 444 kts | 278° |
| 2026-04-25 03:44 | 64.86644 | 92.71043 | 35984 ft | 444 kts | 278° |
| 2026-04-25 03:45 | 64.87387 | 92.56686 | 35982 ft | 444 kts | 278° |
| 2026-04-25 03:45 | 64.88119 | 92.42261 | 35979 ft | 445 kts | 278° |
| 2026-04-25 03:46 | 64.88837 | 92.27820 | 35974 ft | 444 kts | 277° |
| 2026-04-25 03:46 | 64.89534 | 92.13526 | 35969 ft | 444 kts | 277° |
| 2026-04-25 03:47 | 64.90224 | 91.99092 | 35964 ft | 444 kts | 277° |
| 2026-04-25 03:47 | 64.90900 | 91.84651 | 35948 ft | 444 kts | 277° |
| 2026-04-25 03:48 | 64.91557 | 91.70277 | 35943 ft | 444 kts | 277° |
| 2026-04-25 03:48 | 64.92202 | 91.55901 | 35947 ft | 443 kts | 277° |
| 2026-04-25 03:49 | 64.92834 | 91.41454 | 35955 ft | 444 kts | 277° |
| 2026-04-25 03:49 | 64.93455 | 91.26968 | 35960 ft | 443 kts | 276° |
| 2026-04-25 03:50 | 64.94054 | 91.12656 | 35967 ft | 442 kts | 276° |
| 2026-04-25 03:50 | 64.94644 | 90.98220 | 35984 ft | 442 kts | 276° |
| 2026-04-25 03:51 | 64.95217 | 90.83838 | 35978 ft | 441 kts | 276° |
| 2026-04-25 03:51 | 64.95777 | 90.69441 | 35965 ft | 441 kts | 276° |
| 2026-04-25 03:52 | 64.96321 | 90.55103 | 35950 ft | 441 kts | 276° |
| 2026-04-25 03:52 | 64.96851 | 90.40774 | 35951 ft | 440 kts | 276° |
| 2026-04-25 03:53 | 64.97368 | 90.26398 | 35995 ft | 440 kts | 276° |
| 2026-04-25 03:53 | 64.97871 | 90.12026 | 36005 ft | 440 kts | 276° |
| 2026-04-25 03:54 | 64.98357 | 89.97742 | 35974 ft | 439 kts | 276° |
| 2026-04-25 03:54 | 64.98830 | 89.83413 | 35960 ft | 438 kts | 276° |
| 2026-04-25 03:55 | 64.99290 | 89.69076 | 35952 ft | 438 kts | 276° |
| 2026-04-25 03:55 | 64.99737 | 89.54748 | 35939 ft | 439 kts | 276° |
| 2026-04-25 03:56 | 65.00169 | 89.40424 | 35941 ft | 439 kts | 276° |
| 2026-04-25 03:56 | 65.00589 | 89.26028 | 35947 ft | 439 kts | 275° |
| 2026-04-25 03:57 | 65.00992 | 89.11750 | 35946 ft | 439 kts | 275° |
| 2026-04-25 03:57 | 65.01383 | 88.97373 | 35948 ft | 439 kts | 275° |
| 2026-04-25 03:58 | 65.01759 | 88.83080 | 35963 ft | 439 kts | 275° |
| 2026-04-25 03:58 | 65.02125 | 88.68620 | 35980 ft | 439 kts | 275° |
| 2026-04-25 03:59 | 65.02473 | 88.54311 | 35991 ft | 438 kts | 275° |
| 2026-04-25 03:59 | 65.02809 | 88.39957 | 35998 ft | 438 kts | 275° |
| 2026-04-25 04:00 | 65.03157 | 88.25616 | 35987 ft | 437 kts | 274° |
| 2026-04-25 04:00 | 65.03520 | 88.11320 | 35989 ft | 436 kts | 274° |
| 2026-04-25 04:01 | 65.03867 | 87.97056 | 35999 ft | 436 kts | 274° |
| 2026-04-25 04:01 | 65.04186 | 87.82784 | 36001 ft | 436 kts | 274° |
| 2026-04-25 04:02 | 65.04487 | 87.68417 | 36006 ft | 436 kts | 274° |
| 2026-04-25 04:02 | 65.04771 | 87.54118 | 36005 ft | 436 kts | 274° |
| 2026-04-25 04:03 | 65.05042 | 87.39909 | 36008 ft | 435 kts | 274° |
| 2026-04-25 04:03 | 65.05301 | 87.25572 | 36010 ft | 435 kts | 273° |
| 2026-04-25 04:04 | 65.05545 | 87.11262 | 36005 ft | 435 kts | 273° |
| 2026-04-25 04:04 | 65.05775 | 86.97063 | 36013 ft | 435 kts | 273° |
| 2026-04-25 04:05 | 65.05991 | 86.82793 | 36000 ft | 434 kts | 273° |
| 2026-04-25 04:05 | 65.06194 | 86.68540 | 36003 ft | 434 kts | 273° |
| 2026-04-25 04:06 | 65.06384 | 86.54256 | 36002 ft | 433 kts | 273° |
| 2026-04-25 04:06 | 65.06559 | 86.40103 | 35994 ft | 433 kts | 273° |
| 2026-04-25 04:07 | 65.06722 | 86.25812 | 35994 ft | 434 kts | 272° |
| 2026-04-25 04:07 | 65.06871 | 86.11553 | 35988 ft | 433 kts | 272° |
| 2026-04-25 04:08 | 65.07005 | 85.97369 | 35992 ft | 433 kts | 272° |
| 2026-04-25 04:08 | 65.07127 | 85.83057 | 35998 ft | 433 kts | 272° |
| 2026-04-25 04:09 | 65.07235 | 85.68851 | 35985 ft | 433 kts | 272° |
| 2026-04-25 04:09 | 65.07330 | 85.54680 | 35985 ft | 432 kts | 272° |
| 2026-04-25 04:10 | 65.07410 | 85.40482 | 35980 ft | 433 kts | 272° |
| 2026-04-25 04:10 | 65.07478 | 85.26232 | 35978 ft | 432 kts | 271° |
| 2026-04-25 04:11 | 65.07553 | 85.04964 | 35988 ft | 432 kts | 271° |
| 2026-04-25 04:12 | 65.07587 | 84.90680 | 36002 ft | 432 kts | 271° |
| 2026-04-25 04:12 | 65.07607 | 84.76591 | 35991 ft | 431 kts | 271° |
| 2026-04-25 04:13 | 65.07614 | 84.62411 | 35976 ft | 433 kts | 271° |
| 2026-04-25 04:13 | 65.07607 | 84.48124 | 35981 ft | 432 kts | 271° |
| 2026-04-25 04:14 | 65.07587 | 84.33980 | 35972 ft | 432 kts | 270° |
| 2026-04-25 04:14 | 65.07553 | 84.19649 | 35958 ft | 432 kts | 270° |
| 2026-04-25 04:15 | 65.07507 | 84.05568 | 35966 ft | 431 kts | 270° |
| 2026-04-25 04:15 | 65.07446 | 83.91412 | 35964 ft | 430 kts | 270° |
| 2026-04-25 04:16 | 65.07372 | 83.77245 | 35962 ft | 431 kts | 270° |
| 2026-04-25 04:16 | 65.07281 | 83.63120 | 35959 ft | 430 kts | 270° |
| 2026-04-25 04:17 | 65.07175 | 83.48946 | 35965 ft | 430 kts | 270° |
| 2026-04-25 04:17 | 65.07056 | 83.34827 | 35968 ft | 430 kts | 269° |
| 2026-04-25 04:18 | 65.06924 | 83.20653 | 35977 ft | 431 kts | 269° |
| 2026-04-25 04:18 | 65.06780 | 83.06541 | 35976 ft | 430 kts | 269° |
| 2026-04-25 04:19 | 65.06621 | 82.92409 | 35982 ft | 430 kts | 269° |
| 2026-04-25 04:19 | 65.06450 | 82.78347 | 35979 ft | 429 kts | 269° |
| 2026-04-25 04:20 | 65.06265 | 82.64228 | 35974 ft | 430 kts | 269° |
| 2026-04-25 04:20 | 65.06068 | 82.50179 | 35979 ft | 429 kts | 269° |
| 2026-04-25 04:21 | 65.05856 | 82.36060 | 35971 ft | 429 kts | 269° |
| 2026-04-25 04:21 | 65.05632 | 82.22016 | 35973 ft | 428 kts | 268° |
| 2026-04-25 04:22 | 65.05395 | 82.07907 | 35959 ft | 429 kts | 268° |
| 2026-04-25 04:22 | 65.05144 | 81.93818 | 35963 ft | 429 kts | 268° |
| 2026-04-25 04:23 | 65.04881 | 81.79780 | 35970 ft | 429 kts | 268° |
| 2026-04-25 04:23 | 65.04604 | 81.65714 | 35955 ft | 428 kts | 268° |
| 2026-04-25 04:24 | 65.04314 | 81.51680 | 35957 ft | 428 kts | 268° |
| 2026-04-25 04:24 | 65.04012 | 81.37683 | 35957 ft | 427 kts | 268° |
| 2026-04-25 04:25 | 65.03696 | 81.23646 | 35953 ft | 427 kts | 267° |
| 2026-04-25 04:25 | 65.03369 | 81.09713 | 35956 ft | 427 kts | 267° |
| 2026-04-25 04:26 | 65.03028 | 80.95750 | 35953 ft | 427 kts | 267° |
| 2026-04-25 04:26 | 65.02674 | 80.81763 | 35947 ft | 427 kts | 267° |
| 2026-04-25 04:27 | 65.02306 | 80.67745 | 35945 ft | 427 kts | 267° |
| 2026-04-25 04:27 | 65.01925 | 80.53768 | 35941 ft | 427 kts | 267° |
| 2026-04-25 04:28 | 65.01531 | 80.39796 | 35945 ft | 428 kts | 267° |
| 2026-04-25 04:28 | 65.01120 | 80.25666 | 35948 ft | 428 kts | 266° |
| 2026-04-25 04:29 | 65.00700 | 80.11704 | 35943 ft | 428 kts | 266° |
| 2026-04-25 04:29 | 65.00266 | 79.97707 | 35941 ft | 428 kts | 266° |
| 2026-04-25 04:30 | 64.99822 | 79.83796 | 35947 ft | 427 kts | 266° |
| 2026-04-25 04:30 | 64.99364 | 79.69856 | 35944 ft | 427 kts | 266° |
| 2026-04-25 04:31 | 64.98893 | 79.55931 | 35941 ft | 427 kts | 266° |
| 2026-04-25 04:31 | 64.98406 | 79.41942 | 35942 ft | 426 kts | 266° |
| 2026-04-25 04:32 | 64.97907 | 79.27961 | 35943 ft | 427 kts | 265° |
| 2026-04-25 04:32 | 64.97397 | 79.14056 | 35941 ft | 427 kts | 265° |
| 2026-04-25 04:33 | 64.96874 | 79.00168 | 35943 ft | 428 kts | 265° |
| 2026-04-25 04:33 | 64.96337 | 78.86232 | 35942 ft | 428 kts | 265° |
| 2026-04-25 04:34 | 64.95786 | 78.72296 | 35941 ft | 427 kts | 265° |
| 2026-04-25 04:34 | 64.95225 | 78.58418 | 35937 ft | 427 kts | 265° |
| 2026-04-25 04:35 | 64.94649 | 78.44515 | 35933 ft | 428 kts | 265° |
| 2026-04-25 04:35 | 64.94057 | 78.30527 | 35932 ft | 427 kts | 264° |
| 2026-04-25 04:36 | 64.93456 | 78.16630 | 35933 ft | 428 kts | 264° |
| 2026-04-25 04:36 | 64.92841 | 78.02742 | 35932 ft | 427 kts | 264° |
| 2026-04-25 04:37 | 64.92208 | 77.88752 | 35925 ft | 428 kts | 264° |
| 2026-04-25 04:37 | 64.91575 | 77.74833 | 35925 ft | 429 kts | 264° |
| 2026-04-25 04:38 | 64.91058 | 77.60877 | 35925 ft | 429 kts | 265° |
| 2026-04-25 04:38 | 64.90530 | 77.46895 | 35921 ft | 429 kts | 265° |
| 2026-04-25 04:39 | 64.89988 | 77.32979 | 35924 ft | 429 kts | 264° |
| 2026-04-25 04:39 | 64.89426 | 77.18971 | 35926 ft | 428 kts | 264° |
| 2026-04-25 04:40 | 64.88856 | 77.05124 | 35927 ft | 428 kts | 264° |
| 2026-04-25 04:40 | 64.88276 | 76.91179 | 35924 ft | 427 kts | 264° |
| 2026-04-25 04:41 | 64.87713 | 76.77344 | 35915 ft | 427 kts | 264° |
| 2026-04-25 04:41 | 64.87135 | 76.63480 | 35906 ft | 427 kts | 264° |
| 2026-04-25 04:42 | 64.86541 | 76.49579 | 35903 ft | 429 kts | 264° |
| 2026-04-25 04:42 | 64.85935 | 76.35719 | 35902 ft | 429 kts | 264° |
| 2026-04-25 04:43 | 64.85311 | 76.21757 | 35907 ft | 428 kts | 263° |
| 2026-04-25 04:43 | 64.84680 | 76.07941 | 35905 ft | 429 kts | 263° |
| 2026-04-25 04:44 | 64.84031 | 75.94006 | 35902 ft | 429 kts | 263° |
| 2026-04-25 04:44 | 64.83373 | 75.80156 | 35898 ft | 429 kts | 263° |
| 2026-04-25 04:45 | 64.82698 | 75.66252 | 35895 ft | 428 kts | 263° |
| 2026-04-25 04:45 | 64.82014 | 75.52428 | 35891 ft | 429 kts | 263° |
| 2026-04-25 04:46 | 64.81316 | 75.38598 | 35888 ft | 428 kts | 263° |
| 2026-04-25 04:46 | 64.80604 | 75.24722 | 35889 ft | 428 kts | 262° |
| 2026-04-25 04:47 | 64.79881 | 75.10907 | 35884 ft | 428 kts | 262° |
| 2026-04-25 04:47 | 64.79142 | 74.97048 | 35881 ft | 429 kts | 262° |
| 2026-04-25 04:48 | 64.78391 | 74.83197 | 35881 ft | 429 kts | 262° |
| 2026-04-25 04:48 | 64.77627 | 74.69370 | 35875 ft | 429 kts | 262° |
| 2026-04-25 04:49 | 64.76851 | 74.55566 | 35871 ft | 429 kts | 262° |
| 2026-04-25 04:49 | 64.76062 | 74.41752 | 35867 ft | 429 kts | 262° |
| 2026-04-25 04:50 | 64.75256 | 74.27888 | 35865 ft | 429 kts | 261° |
| 2026-04-25 04:50 | 64.74438 | 74.14056 | 35865 ft | 430 kts | 261° |
| 2026-04-25 04:51 | 64.73610 | 74.00246 | 35864 ft | 429 kts | 261° |
| 2026-04-25 04:51 | 64.72769 | 73.86466 | 35863 ft | 430 kts | 261° |
| 2026-04-25 04:52 | 64.71916 | 73.72704 | 35858 ft | 430 kts | 261° |
| 2026-04-25 04:52 | 64.71047 | 73.58899 | 35848 ft | 429 kts | 261° |
| 2026-04-25 04:53 | 64.70171 | 73.45190 | 35845 ft | 429 kts | 261° |
| 2026-04-25 04:53 | 64.69276 | 73.31396 | 35839 ft | 429 kts | 260° |
| 2026-04-25 04:54 | 64.68369 | 73.17636 | 35843 ft | 428 kts | 260° |
| 2026-04-25 04:54 | 64.67452 | 73.03910 | 35847 ft | 429 kts | 260° |
| 2026-04-25 04:55 | 64.66522 | 72.90192 | 35843 ft | 430 kts | 259° |
| 2026-04-25 04:55 | 64.65579 | 72.76483 | 35842 ft | 430 kts | 259° |
| 2026-04-25 04:56 | 64.64616 | 72.62680 | 35835 ft | 430 kts | 259° |
| 2026-04-25 04:56 | 64.63648 | 72.48985 | 35838 ft | 430 kts | 259° |
| 2026-04-25 04:57 | 64.62664 | 72.35271 | 35824 ft | 430 kts | 259° |
| 2026-04-25 04:57 | 64.61665 | 72.21517 | 35812 ft | 429 kts | 259° |
| 2026-04-25 04:58 | 64.60682 | 72.07851 | 35810 ft | 431 kts | 259° |
| 2026-04-25 04:58 | 64.59694 | 71.94134 | 35809 ft | 431 kts | 259° |
| 2026-04-25 04:59 | 64.58691 | 71.80421 | 35806 ft | 430 kts | 259° |
| 2026-04-25 04:59 | 64.57678 | 71.66753 | 35802 ft | 430 kts | 259° |
| 2026-04-25 05:00 | 64.56653 | 71.53112 | 35800 ft | 430 kts | 259° |
| 2026-04-25 05:00 | 64.55611 | 71.39417 | 35803 ft | 431 kts | 259° |
| 2026-04-25 05:01 | 64.54557 | 71.25760 | 35802 ft | 430 kts | 258° |
| 2026-04-25 05:01 | 64.53485 | 71.12032 | 35798 ft | 430 kts | 258° |
| 2026-04-25 05:02 | 64.52411 | 70.98457 | 35793 ft | 430 kts | 258° |
| 2026-04-25 05:02 | 64.51321 | 70.84845 | 35782 ft | 430 kts | 258° |
| 2026-04-25 05:03 | 64.50214 | 70.71196 | 35781 ft | 431 kts | 258° |
| 2026-04-25 05:03 | 64.49099 | 70.57605 | 35774 ft | 431 kts | 258° |
| 2026-04-25 05:04 | 64.47967 | 70.43976 | 35777 ft | 431 kts | 258° |
| 2026-04-25 05:04 | 64.46822 | 70.30359 | 35777 ft | 431 kts | 257° |
| 2026-04-25 05:05 | 64.45664 | 70.16740 | 35775 ft | 431 kts | 257° |
| 2026-04-25 05:05 | 64.44499 | 70.03200 | 35767 ft | 432 kts | 257° |
| 2026-04-25 05:06 | 64.43310 | 69.89595 | 35766 ft | 431 kts | 257° |
| 2026-04-25 05:06 | 64.42099 | 69.76067 | 35771 ft | 431 kts | 257° |
| 2026-04-25 05:07 | 64.40880 | 69.62584 | 35762 ft | 431 kts | 257° |
| 2026-04-25 05:07 | 64.39640 | 69.49022 | 35759 ft | 431 kts | 257° |
| 2026-04-25 05:08 | 64.38392 | 69.35506 | 35753 ft | 431 kts | 257° |
| 2026-04-25 05:08 | 64.37129 | 69.21986 | 35759 ft | 431 kts | 256° |
| 2026-04-25 05:09 | 64.35859 | 69.08523 | 35758 ft | 431 kts | 256° |
| 2026-04-25 05:09 | 64.34570 | 68.95017 | 35749 ft | 432 kts | 256° |
| 2026-04-25 05:10 | 64.33272 | 68.81545 | 35747 ft | 432 kts | 256° |
| 2026-04-25 05:10 | 64.31954 | 68.68014 | 35745 ft | 433 kts | 256° |
| 2026-04-25 05:11 | 64.30631 | 68.54574 | 35734 ft | 432 kts | 256° |
| 2026-04-25 05:11 | 64.29293 | 68.41117 | 35740 ft | 433 kts | 256° |
| 2026-04-25 05:12 | 64.27261 | 68.20930 | 35737 ft | 433 kts | 255° |
| 2026-04-25 05:12 | 64.25886 | 68.07446 | 35737 ft | 433 kts | 255° |
| 2026-04-25 05:13 | 64.24509 | 67.94076 | 35744 ft | 433 kts | 255° |
| 2026-04-25 05:13 | 64.23111 | 67.80640 | 35732 ft | 433 kts | 255° |
| 2026-04-25 05:14 | 64.21707 | 67.67274 | 35730 ft | 433 kts | 255° |
| 2026-04-25 05:15 | 64.19565 | 67.47124 | 35720 ft | 433 kts | 255° |
| 2026-04-25 05:15 | 64.18135 | 67.33833 | 35723 ft | 434 kts | 253° |
| 2026-04-25 05:16 | 64.16673 | 67.20380 | 35718 ft | 434 kts | 253° |
| 2026-04-25 05:16 | 64.15208 | 67.07014 | 35719 ft | 434 kts | 253° |
| 2026-04-25 05:17 | 64.13729 | 66.93650 | 35720 ft | 434 kts | 253° |
| 2026-04-25 05:17 | 64.12238 | 66.80304 | 35711 ft | 434 kts | 253° |
| 2026-04-25 05:18 | 64.10742 | 66.67034 | 35708 ft | 434 kts | 254° |
| 2026-04-25 05:18 | 64.09289 | 66.53647 | 35699 ft | 434 kts | 254° |
| 2026-04-25 05:19 | 64.07832 | 66.40288 | 35702 ft | 434 kts | 254° |
| 2026-04-25 05:19 | 64.06361 | 66.26928 | 35699 ft | 434 kts | 253° |
| 2026-04-25 05:20 | 64.04880 | 66.13628 | 35696 ft | 434 kts | 253° |
| 2026-04-25 05:20 | 64.03385 | 66.00330 | 35695 ft | 434 kts | 253° |
| 2026-04-25 05:21 | 64.01868 | 65.86956 | 35702 ft | 435 kts | 253° |
| 2026-04-25 05:21 | 64.00355 | 65.73742 | 35697 ft | 435 kts | 253° |
| 2026-04-25 05:22 | 63.98818 | 65.60441 | 35693 ft | 435 kts | 253° |
| 2026-04-25 05:22 | 63.97282 | 65.47162 | 35689 ft | 435 kts | 253° |
| 2026-04-25 05:23 | 63.95731 | 65.33867 | 35683 ft | 435 kts | 252° |
| 2026-04-25 05:23 | 63.94175 | 65.20650 | 35682 ft | 435 kts | 252° |
| 2026-04-25 05:24 | 63.92601 | 65.07401 | 35682 ft | 435 kts | 252° |
| 2026-04-25 05:24 | 63.91448 | 64.93940 | 35677 ft | 438 kts | 259° |
| 2026-04-25 05:25 | 63.90542 | 64.80274 | 35670 ft | 437 kts | 259° |
| 2026-04-25 05:25 | 63.89624 | 64.66677 | 35670 ft | 438 kts | 259° |
| 2026-04-25 05:26 | 63.88690 | 64.53082 | 35672 ft | 437 kts | 259° |
| 2026-04-25 05:26 | 63.87742 | 64.39467 | 35667 ft | 437 kts | 259° |
| 2026-04-25 05:27 | 63.86803 | 64.25878 | 35661 ft | 437 kts | 258° |
| 2026-04-25 05:27 | 63.85845 | 64.12204 | 35653 ft | 438 kts | 258° |
| 2026-04-25 05:28 | 63.84880 | 63.98638 | 35653 ft | 439 kts | 258° |
| 2026-04-25 05:28 | 63.83898 | 63.85024 | 35651 ft | 439 kts | 258° |
| 2026-04-25 05:29 | 63.82907 | 63.71469 | 35650 ft | 440 kts | 258° |
| 2026-04-25 05:29 | 63.81892 | 63.57785 | 35645 ft | 440 kts | 258° |
| 2026-04-25 05:30 | 63.80872 | 63.44205 | 35649 ft | 439 kts | 258° |
| 2026-04-25 05:30 | 63.79840 | 63.30643 | 35645 ft | 439 kts | 257° |
| 2026-04-25 05:31 | 63.78798 | 63.17125 | 35639 ft | 438 kts | 257° |
| 2026-04-25 05:31 | 63.77741 | 63.03595 | 35633 ft | 439 kts | 257° |
| 2026-04-25 05:32 | 63.76666 | 62.90019 | 35634 ft | 439 kts | 257° |
| 2026-04-25 05:32 | 63.75584 | 62.76512 | 35641 ft | 440 kts | 257° |
| 2026-04-25 05:33 | 63.74487 | 62.62991 | 35633 ft | 440 kts | 257° |
| 2026-04-25 05:33 | 63.73372 | 62.49408 | 35632 ft | 440 kts | 257° |
| 2026-04-25 05:34 | 63.72244 | 62.35836 | 35633 ft | 440 kts | 257° |
| 2026-04-25 05:34 | 63.71103 | 62.22270 | 35634 ft | 440 kts | 256° |
| 2026-04-25 05:35 | 63.69956 | 62.08801 | 35624 ft | 441 kts | 256° |
| 2026-04-25 05:35 | 63.68792 | 61.95289 | 35609 ft | 441 kts | 256° |
| 2026-04-25 05:36 | 63.67617 | 61.81802 | 35607 ft | 441 kts | 256° |
| 2026-04-25 05:36 | 63.66427 | 61.68296 | 35606 ft | 441 kts | 256° |
| 2026-04-25 05:37 | 63.65225 | 61.54814 | 35607 ft | 441 kts | 256° |
| 2026-04-25 05:37 | 63.64001 | 61.41254 | 35613 ft | 441 kts | 256° |
| 2026-04-25 05:38 | 63.62781 | 61.27874 | 35613 ft | 440 kts | 255° |
| 2026-04-25 05:38 | 63.61535 | 61.14360 | 35606 ft | 442 kts | 255° |
| 2026-04-25 05:39 | 63.60281 | 61.00909 | 35599 ft | 441 kts | 255° |
| 2026-04-25 05:39 | 63.59016 | 60.87480 | 35595 ft | 441 kts | 255° |
| 2026-04-25 05:40 | 63.57736 | 60.74044 | 35586 ft | 441 kts | 255° |
| 2026-04-25 05:40 | 63.56448 | 60.60671 | 35579 ft | 441 kts | 255° |
| 2026-04-25 05:41 | 63.55146 | 60.47284 | 35578 ft | 441 kts | 255° |
| 2026-04-25 05:41 | 63.53825 | 60.33864 | 35581 ft | 442 kts | 254° |
| 2026-04-25 05:42 | 63.52494 | 60.20478 | 35588 ft | 442 kts | 254° |
| 2026-04-25 05:42 | 63.51143 | 60.07024 | 35597 ft | 441 kts | 254° |
| 2026-04-25 05:43 | 63.49786 | 59.93663 | 35599 ft | 442 kts | 254° |
| 2026-04-25 05:43 | 63.48401 | 59.80359 | 35582 ft | 442 kts | 251° |
| 2026-04-25 05:44 | 63.46371 | 59.67422 | 35575 ft | 440 kts | 248° |
| 2026-04-25 05:44 | 63.44260 | 59.54646 | 35561 ft | 440 kts | 248° |
| 2026-04-25 05:45 | 63.42147 | 59.41943 | 35551 ft | 439 kts | 248° |
| 2026-04-25 05:45 | 63.40006 | 59.29157 | 35541 ft | 440 kts | 247° |
| 2026-04-25 05:46 | 63.37858 | 59.16412 | 35526 ft | 440 kts | 246° |
| 2026-04-25 05:46 | 63.35707 | 59.03739 | 35513 ft | 441 kts | 246° |
| 2026-04-25 05:47 | 63.33538 | 58.91048 | 35504 ft | 441 kts | 246° |
| 2026-04-25 05:47 | 63.31346 | 58.78303 | 35521 ft | 442 kts | 246° |
| 2026-04-25 05:48 | 63.29152 | 58.65630 | 35533 ft | 441 kts | 246° |
| 2026-04-25 05:48 | 63.26937 | 58.52922 | 35532 ft | 441 kts | 247° |
| 2026-04-25 05:49 | 63.24718 | 58.40276 | 35529 ft | 441 kts | 247° |
| 2026-04-25 05:49 | 63.22485 | 58.27636 | 35518 ft | 441 kts | 246° |
| 2026-04-25 05:50 | 63.20249 | 58.15056 | 35517 ft | 442 kts | 246° |
| 2026-04-25 05:50 | 63.17986 | 58.02406 | 35521 ft | 442 kts | 246° |
| 2026-04-25 05:51 | 63.15718 | 57.89813 | 35529 ft | 442 kts | 246° |
| 2026-04-25 05:51 | 63.13440 | 57.77249 | 35539 ft | 442 kts | 246° |
| 2026-04-25 05:52 | 63.11153 | 57.64714 | 35525 ft | 441 kts | 246° |
| 2026-04-25 05:52 | 63.08848 | 57.52157 | 35522 ft | 441 kts | 246° |
| 2026-04-25 05:53 | 63.06542 | 57.39678 | 35523 ft | 442 kts | 246° |
| 2026-04-25 05:53 | 63.04219 | 57.27190 | 35520 ft | 442 kts | 245° |
| 2026-04-25 05:54 | 63.01887 | 57.14726 | 35521 ft | 442 kts | 245° |
| 2026-04-25 05:54 | 62.98370 | 56.96080 | 35513 ft | 442 kts | 245° |
| 2026-04-25 05:55 | 62.96009 | 56.83659 | 35503 ft | 442 kts | 245° |
| 2026-04-25 05:55 | 62.93623 | 56.71184 | 35495 ft | 441 kts | 245° |
| 2026-04-25 05:56 | 62.91260 | 56.58905 | 35492 ft | 440 kts | 245° |
| 2026-04-25 05:56 | 62.88867 | 56.46549 | 35494 ft | 442 kts | 245° |
| 2026-04-25 05:57 | 62.86464 | 56.34216 | 35493 ft | 442 kts | 244° |
| 2026-04-25 05:57 | 62.84040 | 56.21852 | 35500 ft | 441 kts | 244° |
| 2026-04-25 05:58 | 62.81620 | 56.09584 | 35506 ft | 442 kts | 244° |
| 2026-04-25 05:58 | 62.79179 | 55.97281 | 35493 ft | 443 kts | 244° |
| 2026-04-25 05:59 | 62.76721 | 55.84966 | 35478 ft | 443 kts | 244° |
| 2026-04-25 05:59 | 62.74249 | 55.72659 | 35478 ft | 442 kts | 244° |
| 2026-04-25 06:00 | 62.71786 | 55.60469 | 35472 ft | 441 kts | 244° |
| 2026-04-25 06:00 | 62.69302 | 55.48246 | 35465 ft | 442 kts | 244° |
| 2026-04-25 06:01 | 62.66811 | 55.36068 | 35463 ft | 443 kts | 244° |
| 2026-04-25 06:01 | 62.64298 | 55.23808 | 35457 ft | 443 kts | 244° |
| 2026-04-25 06:02 | 62.61817 | 55.11684 | 35451 ft | 443 kts | 244° |
| 2026-04-25 06:02 | 62.59304 | 54.99482 | 35458 ft | 443 kts | 244° |
| 2026-04-25 06:03 | 62.56796 | 54.87374 | 35463 ft | 442 kts | 244° |
| 2026-04-25 06:03 | 62.54274 | 54.75274 | 35466 ft | 443 kts | 244° |
| 2026-04-25 06:04 | 62.51735 | 54.63166 | 35461 ft | 443 kts | 244° |
| 2026-04-25 06:04 | 62.49182 | 54.51060 | 35464 ft | 443 kts | 244° |
| 2026-04-25 06:05 | 62.46626 | 54.39012 | 35459 ft | 442 kts | 244° |
| 2026-04-25 06:05 | 62.44061 | 54.26988 | 35453 ft | 442 kts | 243° |
| 2026-04-25 06:06 | 62.41489 | 54.15005 | 35447 ft | 442 kts | 243° |
| 2026-04-25 06:06 | 62.38896 | 54.02986 | 35443 ft | 442 kts | 243° |
| 2026-04-25 06:07 | 62.36316 | 53.91099 | 35431 ft | 442 kts | 243° |
| 2026-04-25 06:07 | 62.33706 | 53.79060 | 35426 ft | 444 kts | 243° |
| 2026-04-25 06:08 | 62.31096 | 53.67082 | 35426 ft | 445 kts | 243° |
| 2026-04-25 06:08 | 62.28456 | 53.55043 | 35425 ft | 445 kts | 243° |
| 2026-04-25 06:09 | 62.25818 | 53.43077 | 35425 ft | 445 kts | 243° |
| 2026-04-25 06:09 | 62.23159 | 53.31092 | 35416 ft | 445 kts | 242° |
| 2026-04-25 06:10 | 62.20519 | 53.19259 | 35405 ft | 445 kts | 242° |
| 2026-04-25 06:10 | 62.17842 | 53.07330 | 35403 ft | 445 kts | 242° |
| 2026-04-25 06:11 | 62.15158 | 52.95430 | 35396 ft | 446 kts | 242° |
| 2026-04-25 06:11 | 62.12460 | 52.83540 | 35398 ft | 445 kts | 242° |
| 2026-04-25 06:12 | 62.09763 | 52.71717 | 35398 ft | 446 kts | 243° |
| 2026-04-25 06:12 | 62.07035 | 52.59824 | 35401 ft | 446 kts | 243° |
| 2026-04-25 06:13 | 62.04317 | 52.48044 | 35401 ft | 446 kts | 243° |
| 2026-04-25 06:14 | 62.00194 | 52.30292 | 35400 ft | 445 kts | 242° |
| 2026-04-25 06:14 | 61.97458 | 52.18590 | 35406 ft | 445 kts | 242° |
| 2026-04-25 06:15 | 61.94668 | 52.06834 | 35390 ft | 446 kts | 241° |
| 2026-04-25 06:15 | 61.91875 | 51.95146 | 35376 ft | 446 kts | 242° |
| 2026-04-25 06:16 | 61.89059 | 51.83418 | 35380 ft | 447 kts | 242° |
| 2026-04-25 06:16 | 61.86239 | 51.71735 | 35381 ft | 447 kts | 242° |
| 2026-04-25 06:17 | 61.83400 | 51.60040 | 35375 ft | 446 kts | 242° |
| 2026-04-25 06:17 | 61.80549 | 51.48362 | 35379 ft | 446 kts | 242° |
| 2026-04-25 06:18 | 61.77707 | 51.36783 | 35380 ft | 447 kts | 242° |
| 2026-04-25 06:18 | 61.74851 | 51.25209 | 35384 ft | 446 kts | 241° |
| 2026-04-25 06:19 | 61.71975 | 51.13614 | 35382 ft | 447 kts | 241° |
| 2026-04-25 06:19 | 61.69085 | 51.02024 | 35381 ft | 448 kts | 241° |
| 2026-04-25 06:20 | 61.66193 | 50.90485 | 35371 ft | 448 kts | 241° |
| 2026-04-25 06:20 | 61.63244 | 50.79050 | 35366 ft | 447 kts | 239° |
| 2026-04-25 06:21 | 61.60130 | 50.67833 | 35363 ft | 447 kts | 239° |
| 2026-04-25 06:21 | 61.56996 | 50.56568 | 35364 ft | 446 kts | 239° |
| 2026-04-25 06:22 | 61.53862 | 50.45338 | 35369 ft | 447 kts | 239° |
| 2026-04-25 06:22 | 61.50731 | 50.34155 | 35373 ft | 447 kts | 238° |
| 2026-04-25 06:23 | 61.47597 | 50.23016 | 35372 ft | 448 kts | 238° |
| 2026-04-25 06:23 | 61.44437 | 50.11830 | 35372 ft | 448 kts | 238° |
| 2026-04-25 06:24 | 61.41279 | 50.00707 | 35369 ft | 448 kts | 238° |
| 2026-04-25 06:24 | 61.38094 | 49.89541 | 35365 ft | 448 kts | 238° |
| 2026-04-25 06:25 | 61.34918 | 49.78463 | 35357 ft | 447 kts | 238° |
| 2026-04-25 06:25 | 61.31733 | 49.67404 | 35347 ft | 446 kts | 239° |
| 2026-04-25 06:26 | 61.28530 | 49.56340 | 35342 ft | 447 kts | 239° |
| 2026-04-25 06:26 | 61.25321 | 49.45359 | 35342 ft | 448 kts | 239° |
| 2026-04-25 06:27 | 61.22073 | 49.34319 | 35348 ft | 449 kts | 238° |
| 2026-04-25 06:27 | 61.18826 | 49.23338 | 35352 ft | 449 kts | 238° |
| 2026-04-25 06:28 | 61.15556 | 49.12328 | 35355 ft | 448 kts | 238° |
| 2026-04-25 06:28 | 61.12302 | 49.01422 | 35357 ft | 448 kts | 238° |
| 2026-04-25 06:29 | 61.09014 | 48.90457 | 35354 ft | 448 kts | 238° |
| 2026-04-25 06:29 | 61.05738 | 48.79583 | 35356 ft | 448 kts | 238° |
| 2026-04-25 06:30 | 61.02441 | 48.68689 | 35363 ft | 449 kts | 238° |
| 2026-04-25 06:30 | 60.99153 | 48.57879 | 35360 ft | 449 kts | 238° |
| 2026-04-25 06:31 | 60.95838 | 48.47007 | 35365 ft | 449 kts | 238° |
| 2026-04-25 06:31 | 60.92510 | 48.36124 | 35363 ft | 449 kts | 238° |
| 2026-04-25 06:32 | 60.89190 | 48.25312 | 35366 ft | 449 kts | 238° |
| 2026-04-25 06:32 | 60.85857 | 48.14498 | 35368 ft | 449 kts | 238° |
| 2026-04-25 06:33 | 60.82534 | 48.03769 | 35367 ft | 449 kts | 238° |
| 2026-04-25 06:33 | 60.79185 | 47.93004 | 35370 ft | 448 kts | 238° |
| 2026-04-25 06:34 | 60.75837 | 47.82295 | 35377 ft | 449 kts | 238° |
| 2026-04-25 06:34 | 60.72489 | 47.71634 | 35381 ft | 449 kts | 238° |
| 2026-04-25 06:35 | 60.69117 | 47.60945 | 35385 ft | 450 kts | 238° |
| 2026-04-25 06:35 | 60.65725 | 47.50244 | 35392 ft | 449 kts | 238° |
| 2026-04-25 06:36 | 60.62338 | 47.39606 | 35389 ft | 450 kts | 238° |
| 2026-04-25 06:36 | 60.58927 | 47.28945 | 35393 ft | 449 kts | 237° |
| 2026-04-25 06:37 | 60.55515 | 47.18326 | 35399 ft | 450 kts | 237° |
| 2026-04-25 06:37 | 60.52116 | 47.07799 | 35406 ft | 450 kts | 237° |
| 2026-04-25 06:38 | 60.48673 | 46.97182 | 35404 ft | 450 kts | 237° |
| 2026-04-25 06:38 | 60.45251 | 46.86679 | 35404 ft | 450 kts | 238° |
| 2026-04-25 06:39 | 60.41788 | 46.76098 | 35404 ft | 450 kts | 238° |
| 2026-04-25 06:39 | 60.38345 | 46.65626 | 35399 ft | 450 kts | 238° |
| 2026-04-25 06:40 | 60.34887 | 46.55163 | 35401 ft | 450 kts | 238° |
| 2026-04-25 06:40 | 60.31402 | 46.44663 | 35403 ft | 451 kts | 238° |
| 2026-04-25 06:41 | 60.27912 | 46.34197 | 35404 ft | 451 kts | 237° |
| 2026-04-25 06:41 | 60.24418 | 46.23766 | 35412 ft | 451 kts | 237° |
| 2026-04-25 06:42 | 60.20923 | 46.13376 | 35416 ft | 451 kts | 237° |
| 2026-04-25 06:42 | 60.17400 | 46.02951 | 35418 ft | 451 kts | 237° |
| 2026-04-25 06:43 | 60.13887 | 45.92604 | 35421 ft | 451 kts | 237° |
| 2026-04-25 06:43 | 60.10743 | 45.81815 | 35424 ft | 450 kts | 243° |
| 2026-04-25 06:44 | 60.07740 | 45.70836 | 35424 ft | 451 kts | 243° |
| 2026-04-25 06:44 | 60.04711 | 45.59928 | 35424 ft | 451 kts | 243° |
| 2026-04-25 06:45 | 60.01650 | 45.49013 | 35418 ft | 450 kts | 243° |
| 2026-04-25 06:45 | 59.98583 | 45.38162 | 35418 ft | 450 kts | 243° |
| 2026-04-25 06:46 | 59.95505 | 45.27336 | 35431 ft | 451 kts | 242° |
| 2026-04-25 06:46 | 59.92416 | 45.16535 | 35437 ft | 450 kts | 242° |
| 2026-04-25 06:47 | 59.89300 | 45.05690 | 35435 ft | 450 kts | 242° |
| 2026-04-25 06:47 | 59.86204 | 44.94971 | 35441 ft | 450 kts | 242° |
| 2026-04-25 06:48 | 59.83080 | 44.84204 | 35447 ft | 450 kts | 243° |
| 2026-04-25 06:48 | 59.79963 | 44.73515 | 35445 ft | 450 kts | 243° |
| 2026-04-25 06:49 | 59.76825 | 44.62814 | 35445 ft | 450 kts | 243° |
| 2026-04-25 06:49 | 59.73680 | 44.52154 | 35439 ft | 450 kts | 243° |
| 2026-04-25 06:50 | 59.70515 | 44.41473 | 35438 ft | 450 kts | 243° |
| 2026-04-25 06:50 | 59.67356 | 44.30829 | 35451 ft | 451 kts | 242° |
| 2026-04-25 06:51 | 59.64199 | 44.20235 | 35456 ft | 450 kts | 242° |
| 2026-04-25 06:51 | 59.61019 | 44.09614 | 35453 ft | 450 kts | 242° |
| 2026-04-25 06:52 | 59.57839 | 43.99005 | 35462 ft | 450 kts | 242° |
| 2026-04-25 06:52 | 59.54650 | 43.88404 | 35464 ft | 450 kts | 242° |
| 2026-04-25 06:53 | 59.51453 | 43.77828 | 35470 ft | 450 kts | 243° |
| 2026-04-25 06:53 | 59.48255 | 43.67299 | 35480 ft | 450 kts | 243° |
| 2026-04-25 06:54 | 59.45046 | 43.56778 | 35480 ft | 450 kts | 243° |
| 2026-04-25 06:54 | 59.41837 | 43.46307 | 35483 ft | 450 kts | 243° |
| 2026-04-25 06:55 | 59.38628 | 43.35886 | 35490 ft | 449 kts | 243° |
| 2026-04-25 06:55 | 59.35380 | 43.25381 | 35497 ft | 449 kts | 242° |
| 2026-04-25 06:56 | 59.32147 | 43.14972 | 35492 ft | 450 kts | 242° |
| 2026-04-25 06:56 | 59.28911 | 43.04603 | 35500 ft | 450 kts | 242° |
| 2026-04-25 06:57 | 59.25661 | 42.94232 | 35495 ft | 450 kts | 242° |
| 2026-04-25 06:57 | 59.22395 | 42.83857 | 35501 ft | 448 kts | 242° |
| 2026-04-25 06:58 | 59.19109 | 42.73467 | 35497 ft | 449 kts | 242° |
| 2026-04-25 06:58 | 59.15847 | 42.63194 | 35501 ft | 450 kts | 243° |
| 2026-04-25 06:59 | 59.12551 | 42.52864 | 35511 ft | 449 kts | 243° |
| 2026-04-25 06:59 | 59.09250 | 42.42562 | 35531 ft | 448 kts | 243° |
| 2026-04-25 07:00 | 59.05959 | 42.32335 | 35530 ft | 450 kts | 242° |
| 2026-04-25 07:00 | 59.02651 | 42.22103 | 35530 ft | 448 kts | 242° |
| 2026-04-25 07:01 | 58.99349 | 42.11930 | 35523 ft | 448 kts | 242° |
| 2026-04-25 07:01 | 58.96012 | 42.01698 | 35524 ft | 448 kts | 242° |
| 2026-04-25 07:02 | 58.92693 | 41.91561 | 35520 ft | 448 kts | 242° |
| 2026-04-25 07:02 | 58.89366 | 41.81446 | 35525 ft | 449 kts | 242° |
| 2026-04-25 07:03 | 58.86010 | 41.71285 | 35520 ft | 448 kts | 242° |
| 2026-04-25 07:03 | 58.82670 | 41.61217 | 35527 ft | 448 kts | 242° |
| 2026-04-25 07:04 | 58.79303 | 41.51109 | 35528 ft | 448 kts | 242° |
| 2026-04-25 07:04 | 58.76128 | 41.40895 | 35545 ft | 443 kts | 250° |
| 2026-04-25 07:05 | 58.73568 | 41.30195 | 35557 ft | 445 kts | 250° |
| 2026-04-25 07:05 | 58.70984 | 41.19424 | 35557 ft | 444 kts | 250° |
| 2026-04-25 07:06 | 58.68396 | 41.08723 | 35556 ft | 441 kts | 250° |
| 2026-04-25 07:06 | 58.65792 | 40.98026 | 35555 ft | 443 kts | 250° |
| 2026-04-25 07:07 | 58.63193 | 40.87419 | 35560 ft | 441 kts | 249° |
| 2026-04-25 07:07 | 58.60580 | 40.76805 | 35565 ft | 442 kts | 249° |
| 2026-04-25 07:08 | 58.57950 | 40.66178 | 35573 ft | 441 kts | 250° |
| 2026-04-25 07:08 | 58.55338 | 40.55676 | 35573 ft | 439 kts | 250° |
| 2026-04-25 07:09 | 58.52719 | 40.45195 | 35570 ft | 438 kts | 250° |
| 2026-04-25 07:09 | 58.50086 | 40.34710 | 35576 ft | 440 kts | 249° |
| 2026-04-25 07:10 | 58.47431 | 40.24187 | 35585 ft | 438 kts | 249° |
| 2026-04-25 07:10 | 58.44774 | 40.13703 | 35595 ft | 438 kts | 249° |
| 2026-04-25 07:11 | 58.42124 | 40.03302 | 35596 ft | 437 kts | 249° |
| 2026-04-25 07:11 | 58.39475 | 39.92949 | 35607 ft | 438 kts | 249° |
| 2026-04-25 07:12 | 58.36801 | 39.82551 | 35605 ft | 436 kts | 249° |
| 2026-04-25 07:12 | 58.33863 | 39.72487 | 35604 ft | 443 kts | 238° |
| 2026-04-25 07:12 | 58.31842 | 39.68073 | 35601 ft | 449 kts | 230° |
| 2026-04-25 07:13 | 58.27252 | 39.60063 | 35614 ft | 450 kts | 228° |
| 2026-04-25 07:13 | 58.22596 | 39.52130 | 35614 ft | 450 kts | 227° |
| 2026-04-25 07:14 | 58.17967 | 39.44302 | 35621 ft | 448 kts | 227° |
| 2026-04-25 07:14 | 58.13320 | 39.36485 | 35603 ft | 449 kts | 227° |
| 2026-04-25 07:15 | 58.08682 | 39.28719 | 35623 ft | 450 kts | 226° |
| 2026-04-25 07:15 | 58.04004 | 39.20919 | 35622 ft | 448 kts | 227° |
| 2026-04-25 07:16 | 57.99366 | 39.13214 | 35631 ft | 447 kts | 227° |
| 2026-04-25 07:16 | 57.94688 | 39.05474 | 35631 ft | 447 kts | 227° |
| 2026-04-25 07:17 | 57.90051 | 38.97828 | 35632 ft | 446 kts | 227° |
| 2026-04-25 07:17 | 57.85377 | 38.90152 | 35476 ft | 442 kts | 227° |
| 2026-04-25 07:18 | 57.83082 | 38.86390 | 34808 ft | 449 kts | 227° |
| 2026-04-25 07:18 | 57.80698 | 38.82486 | 34093 ft | 457 kts | 228° |
| 2026-04-25 07:18 | 57.78329 | 38.78613 | 33238 ft | 465 kts | 228° |
| 2026-04-25 07:18 | 57.75877 | 38.74614 | 32379 ft | 473 kts | 228° |
| 2026-04-25 07:19 | 57.73405 | 38.70591 | 31362 ft | 479 kts | 228° |
| 2026-04-25 07:19 | 57.70900 | 38.66523 | 30446 ft | 482 kts | 228° |
| 2026-04-25 07:19 | 57.68366 | 38.62424 | 29876 ft | 477 kts | 228° |
| 2026-04-25 07:19 | 57.65883 | 38.58417 | 29356 ft | 472 kts | 228° |
| 2026-04-25 07:20 | 57.63441 | 38.54479 | 28784 ft | 468 kts | 228° |
| 2026-04-25 07:20 | 57.60995 | 38.50542 | 28202 ft | 464 kts | 228° |
| 2026-04-25 07:20 | 57.58565 | 38.46635 | 27612 ft | 460 kts | 228° |
| 2026-04-25 07:20 | 57.56183 | 38.42812 | 27028 ft | 457 kts | 228° |
| 2026-04-25 07:21 | 57.53773 | 38.38952 | 26430 ft | 453 kts | 228° |
| 2026-04-25 07:21 | 57.51418 | 38.35184 | 25853 ft | 450 kts | 228° |
| 2026-04-25 07:21 | 57.49054 | 38.31410 | 25280 ft | 446 kts | 227° |
| 2026-04-25 07:21 | 57.46740 | 38.27721 | 24714 ft | 443 kts | 227° |
| 2026-04-25 07:22 | 57.44405 | 38.24005 | 24133 ft | 440 kts | 227° |
| 2026-04-25 07:22 | 57.42107 | 38.20355 | 23554 ft | 438 kts | 227° |
| 2026-04-25 07:22 | 57.39785 | 38.16672 | 22964 ft | 435 kts | 227° |
| 2026-04-25 07:22 | 57.37505 | 38.13061 | 22374 ft | 433 kts | 227° |
| 2026-04-25 07:23 | 57.35219 | 38.09449 | 21778 ft | 430 kts | 226° |
| 2026-04-25 07:23 | 57.32974 | 38.05907 | 21192 ft | 428 kts | 226° |
| 2026-04-25 07:23 | 57.30725 | 38.02364 | 20593 ft | 425 kts | 226° |
| 2026-04-25 07:23 | 57.28488 | 37.98845 | 19993 ft | 423 kts | 226° |
| 2026-04-25 07:24 | 57.26261 | 37.95350 | 19387 ft | 420 kts | 226° |
| 2026-04-25 07:24 | 57.24070 | 37.91914 | 18793 ft | 417 kts | 225° |
| 2026-04-25 07:24 | 57.21860 | 37.88456 | 18196 ft | 415 kts | 225° |
| 2026-04-25 07:24 | 57.19675 | 37.85044 | 17605 ft | 412 kts | 225° |
| 2026-04-25 07:25 | 57.17503 | 37.81655 | 16999 ft | 409 kts | 225° |
| 2026-04-25 07:25 | 57.15350 | 37.78302 | 16400 ft | 407 kts | 225° |
| 2026-04-25 07:25 | 57.13192 | 37.74947 | 15839 ft | 403 kts | 225° |
| 2026-04-25 07:25 | 57.10971 | 37.71940 | 15652 ft | 394 kts | 216° |
| 2026-04-25 07:26 | 57.08555 | 37.69755 | 15498 ft | 385 kts | 208° |
| 2026-04-25 07:26 | 57.06136 | 37.67878 | 15159 ft | 378 kts | 207° |
| 2026-04-25 07:26 | 57.03732 | 37.66048 | 14847 ft | 370 kts | 207° |
| 2026-04-25 07:26 | 57.01383 | 37.64272 | 14575 ft | 362 kts | 207° |
| 2026-04-25 07:27 | 56.99084 | 37.62543 | 14317 ft | 354 kts | 208° |
| 2026-04-25 07:27 | 56.96827 | 37.60854 | 14063 ft | 347 kts | 207° |
| 2026-04-25 07:27 | 56.94617 | 37.59207 | 13817 ft | 343 kts | 207° |
| 2026-04-25 07:27 | 56.92422 | 37.57577 | 13569 ft | 341 kts | 207° |
| 2026-04-25 07:28 | 56.90218 | 37.55944 | 13315 ft | 340 kts | 207° |
| 2026-04-25 07:28 | 56.88047 | 37.54342 | 13056 ft | 338 kts | 207° |
| 2026-04-25 07:28 | 56.85883 | 37.52748 | 12807 ft | 335 kts | 207° |
| 2026-04-25 07:28 | 56.83711 | 37.51150 | 12558 ft | 334 kts | 207° |
| 2026-04-25 07:29 | 56.81535 | 37.49553 | 12312 ft | 333 kts | 207° |
| 2026-04-25 07:29 | 56.79402 | 37.47988 | 12066 ft | 330 kts | 207° |
| 2026-04-25 07:29 | 56.77303 | 37.46450 | 11831 ft | 329 kts | 207° |
| 2026-04-25 07:29 | 56.75184 | 37.44900 | 11586 ft | 327 kts | 207° |
| 2026-04-25 07:30 | 56.73069 | 37.43354 | 11342 ft | 326 kts | 206° |
| 2026-04-25 07:30 | 56.70978 | 37.41828 | 11113 ft | 320 kts | 206° |
| 2026-04-25 07:30 | 56.68940 | 37.40345 | 10875 ft | 313 kts | 207° |
| 2026-04-25 07:30 | 56.66964 | 37.38907 | 10647 ft | 306 kts | 207° |
| 2026-04-25 07:31 | 56.65020 | 37.37455 | 10403 ft | 300 kts | 208° |
| 2026-04-25 07:31 | 56.63104 | 37.35990 | 10136 ft | 295 kts | 208° |
| 2026-04-25 07:31 | 56.61247 | 37.34576 | 9878 ft | 290 kts | 207° |
| 2026-04-25 07:31 | 56.59404 | 37.33178 | 9667 ft | 284 kts | 207° |
| 2026-04-25 07:32 | 56.57591 | 37.31815 | 9561 ft | 282 kts | 204° |
| 2026-04-25 07:32 | 56.55662 | 37.31251 | 9507 ft | 290 kts | 176° |
| 2026-04-25 07:32 | 56.53708 | 37.32256 | 9504 ft | 293 kts | 159° |
| 2026-04-25 07:32 | 56.51819 | 37.33709 | 9503 ft | 294 kts | 158° |
| 2026-04-25 07:33 | 56.49970 | 37.35161 | 9502 ft | 293 kts | 158° |
| 2026-04-25 07:33 | 56.48110 | 37.36623 | 9503 ft | 293 kts | 158° |
| 2026-04-25 07:33 | 56.46220 | 37.38106 | 9492 ft | 294 kts | 158° |
| 2026-04-25 07:33 | 56.44364 | 37.39561 | 9289 ft | 294 kts | 158° |
| 2026-04-25 07:34 | 56.42484 | 37.41034 | 8947 ft | 294 kts | 158° |
| 2026-04-25 07:34 | 56.40600 | 37.42508 | 8577 ft | 294 kts | 158° |
| 2026-04-25 07:34 | 56.38751 | 37.43953 | 8217 ft | 294 kts | 158° |
| 2026-04-25 07:34 | 56.36876 | 37.45416 | 7852 ft | 294 kts | 158° |
| 2026-04-25 07:35 | 56.35004 | 37.46876 | 7500 ft | 294 kts | 157° |
| 2026-04-25 07:35 | 56.33128 | 37.48338 | 7135 ft | 293 kts | 157° |
| 2026-04-25 07:35 | 56.31274 | 37.49781 | 6909 ft | 288 kts | 157° |
| 2026-04-25 07:35 | 56.29430 | 37.51215 | 6473 ft | 289 kts | 157° |
| 2026-04-25 07:36 | 56.27602 | 37.52635 | 6240 ft | 282 kts | 157° |
| 2026-04-25 07:36 | 56.25822 | 37.54016 | 5812 ft | 283 kts | 157° |
| 2026-04-25 07:36 | 56.24009 | 37.55421 | 5399 ft | 282 kts | 157° |
| 2026-04-25 07:36 | 56.22234 | 37.56794 | 5059 ft | 279 kts | 157° |
| 2026-04-25 07:37 | 56.20499 | 37.58162 | 4956 ft | 266 kts | 152° |
| 2026-04-25 07:37 | 56.19055 | 37.60088 | 4902 ft | 254 kts | 136° |
| 2026-04-25 07:37 | 56.17813 | 37.62275 | 4795 ft | 249 kts | 134° |
| 2026-04-25 07:37 | 56.16610 | 37.64480 | 4676 ft | 245 kts | 133° |
| 2026-04-25 07:38 | 56.15424 | 37.66660 | 4556 ft | 244 kts | 134° |
| 2026-04-25 07:38 | 56.14240 | 37.68834 | 4440 ft | 243 kts | 134° |
| 2026-04-25 07:38 | 56.13080 | 37.70960 | 4325 ft | 239 kts | 134° |
| 2026-04-25 07:38 | 56.11929 | 37.73067 | 4214 ft | 232 kts | 134° |
| 2026-04-25 07:39 | 56.10813 | 37.75108 | 4108 ft | 226 kts | 134° |
| 2026-04-25 07:39 | 56.09567 | 37.76627 | 3988 ft | 216 kts | 164° |
| 2026-04-25 07:39 | 56.08114 | 37.76834 | 3881 ft | 209 kts | 190° |
| 2026-04-25 07:39 | 56.06697 | 37.76292 | 3758 ft | 207 kts | 198° |
| 2026-04-25 07:40 | 56.05314 | 37.75546 | 3631 ft | 206 kts | 200° |
| 2026-04-25 07:40 | 56.03956 | 37.74771 | 3508 ft | 205 kts | 200° |
| 2026-04-25 07:40 | 56.02656 | 37.73842 | 3374 ft | 201 kts | 218° |
| 2026-04-25 07:40 | 56.01794 | 37.71956 | 3247 ft | 193 kts | 248° |
| 2026-04-25 07:41 | 56.01344 | 37.69761 | 3136 ft | 182 kts | 257° |
| 2026-04-25 07:41 | 56.00789 | 37.67738 | 3036 ft | 186 kts | 230° |
| 2026-04-25 07:41 | 56.00059 | 37.65876 | 2924 ft | 185 kts | 252° |
| 2026-04-25 07:41 | 55.99813 | 37.63660 | 2850 ft | 179 kts | 275° |
| 2026-04-25 07:42 | 55.99904 | 37.61509 | 2684 ft | 173 kts | 275° |
| 2026-04-25 07:42 | 55.99845 | 37.59392 | 2409 ft | 163 kts | 265° |
| 2026-04-25 07:42 | 55.99600 | 37.57489 | 2187 ft | 156 kts | 258° |
| 2026-04-25 07:42 | 55.99254 | 37.55702 | 1976 ft | 146 kts | 254° |
| 2026-04-25 07:43 | 55.98935 | 37.54033 | 1714 ft | 137 kts | 259° |
| 2026-04-25 07:43 | 55.98680 | 37.52475 | 1567 ft | 129 kts | 261° |
| 2026-04-25 07:43 | 55.98461 | 37.50905 | 1395 ft | 134 kts | 264° |
| 2026-04-25 07:43 | 55.98274 | 37.49286 | 1201 ft | 132 kts | 263° |
| 2026-04-25 07:44 | 55.98059 | 37.47712 | 1053 ft | 128 kts | 263° |
| 2026-04-25 07:44 | 55.97843 | 37.46187 | 872 ft | 126 kts | 259° |
| 2026-04-25 07:44 | 55.97610 | 37.44651 | 723 ft | 127 kts | 260° |
| 2026-04-25 07:44 | 55.97391 | 37.43162 | 646 ft | 118 kts | 256° |
| 2026-04-25 07:45 | 55.97213 | 37.41946 | 645 ft | 83 kts | 256° |
| 2026-04-25 07:45 | 55.97095 | 37.41160 | 645 ft | 48 kts | 256° |
| 2026-04-25 07:45 | 55.97030 | 37.40724 | 645 ft | 31 kts | 255° |
| 2026-04-25 07:45 | 55.96975 | 37.40355 | 645 ft | 29 kts | 256° |
| 2026-04-25 07:46 | 55.96943 | 37.40129 | 645 ft | 7 kts | 269° |
| 2026-04-25 07:46 | 55.96971 | 37.40057 | 645 ft | 7 kts | 329° |
| 2026-04-25 07:46 | 55.97020 | 37.40031 | 645 ft | 7 kts | 346° |
| 2026-04-25 07:46 | 55.97070 | 37.40008 | 645 ft | 7 kts | 346° |
| 2026-04-25 07:47 | 55.97121 | 37.39986 | 645 ft | 7 kts | 346° |
| 2026-04-25 07:47 | 55.97171 | 37.39963 | 645 ft | 7 kts | 345° |
| 2026-04-25 07:47 | 55.97222 | 37.39936 | 645 ft | 7 kts | 344° |
| 2026-04-25 07:47 | 55.97272 | 37.39911 | 645 ft | 7 kts | 346° |
| 2026-04-25 07:48 | 55.97323 | 37.39887 | 645 ft | 7 kts | 346° |
| 2026-04-25 07:48 | 55.97374 | 37.39864 | 645 ft | 7 kts | 346° |
| 2026-04-25 07:48 | 55.97413 | 37.39832 | 645 ft | 5 kts | 308° |
| 2026-04-25 07:48 | 55.97419 | 37.39763 | 645 ft | 5 kts | 264° |
| 2026-04-25 07:49 | 55.97409 | 37.39687 | 645 ft | 6 kts | 256° |
| 2026-04-25 07:49 | 55.97397 | 37.39606 | 645 ft | 6 kts | 256° |
| 2026-04-25 07:49 | 55.97385 | 37.39523 | 645 ft | 7 kts | 256° |
| 2026-04-25 07:49 | 55.97372 | 37.39436 | 645 ft | 7 kts | 256° |
| 2026-04-25 07:50 | 55.97359 | 37.39346 | 645 ft | 7 kts | 256° |
| 2026-04-25 07:50 | 55.97345 | 37.39257 | 645 ft | 7 kts | 255° |
| 2026-04-25 07:50 | 55.97331 | 37.39164 | 645 ft | 7 kts | 255° |
| 2026-04-25 07:50 | 55.97317 | 37.39072 | 645 ft | 7 kts | 256° |
| 2026-04-25 07:51 | 55.97311 | 37.38999 | 645 ft | 5 kts | 284° |
| 2026-04-25 07:51 | 55.97335 | 37.38957 | 645 ft | 4 kts | 342° |
| 2026-04-25 07:51 | 55.97359 | 37.38945 | 645 ft | 3 kts | 345° |
| 2026-04-25 07:51 | 55.97368 | 37.38941 | 645 ft | 0 kts | 345° |
| 2026-04-25 07:52 | 55.97369 | 37.38940 | 645 ft | 0 kts | 345° |